
Distance (Route):
Temperature : -49.3°C
Humidity : 3.4%
Pressure : 225.2hPa| Receiver | Frames | First received | Last received |
|---|---|---|---|
| DL1XH-west | 312 | 2026-08-31 12:35:11 | 2026-08-31 13:32:33 |
| DM0DOS-11 | 154 | 2026-08-31 12:50:11 | 2026-08-31 13:30:55 |
| DJ2DS-15 | 87 | 2026-08-31 12:25:39 | 2026-08-31 13:34:52 |
| GOEST3-10 | 2 | 2026-08-31 13:20:29 | 2026-08-31 13:20:43 |
| Receiver | Date | Latitude | Longitude | Direction | Speed | Altitude | Climb | Temperature | Humidity | Pressure | Voltage | Killtimer | Uptime | BKT | XDATA |
|---|---|---|---|---|---|---|---|---|---|---|---|---|---|---|---|
| DJ2DS-15 | 2026-08-31 13:34:52 | 56.77085 | 3.82348 | 91° | 27km/h | 11052m | -22.9m/s | -49.3°C | 3.4% | 225.2hPa | 2.6V | 00:00:00 | 00:00:00 | 00:00:00 | |
| DJ2DS-15 | 2026-08-31 13:34:16 | 56.77082 | 3.82148 | 81° | 37km/h | 11379m | -24.0m/s | -48.2°C | 2.4% | 214.3hPa | 2.6V | 00:00:00 | 00:00:00 | 00:00:00 | |
| DJ2DS-15 | 2026-08-31 13:33:47 | 56.77064 | 3.81671 | 86° | 31km/h | 12023m | -22.9m/s | -46.1°C | 3.5% | 194.3hPa | 2.6V | 00:00:00 | 02:43:03 | 00:00:00 | |
| DJ2DS-15 | 2026-08-31 13:33:39 | 56.77066 | 3.81553 | 90° | 29km/h | 12205m | -24.6m/s | -46.6°C | 1.5% | 189.1hPa | 2.6V | 00:00:00 | 00:00:00 | 00:00:00 | |
| DJ2DS-15 | 2026-08-31 13:33:27 | 56.77051 | 3.81389 | 77° | 31km/h | 12495m | -23.1m/s | -46.8°C | 3.4% | 180.8hPa | 2.6V | 00:00:00 | 02:42:43 | 00:00:00 | |
| DJ2DS-15 | 2026-08-31 13:33:07 | 56.77009 | 3.81114 | 71° | 35km/h | 12989m | -25.8m/s | -47.2°C | 3.3% | 167.9hPa | 2.5V | 00:00:00 | 02:42:23 | 00:00:00 | |
| DL1XH-west | 2026-08-31 13:32:33 | 56.76896 | 3.80603 | 65° | 38km/h | 13869m | -28.1m/s | -47.4°C | 0.3% | 147hPa | 2.5V | 08:25:37 | 02:41:49 | 00:00:00 | |
| DL1XH-west | 2026-08-31 13:32:22 | 56.76852 | 3.80437 | 61° | 38km/h | 14167m | -26.7m/s | -47.4°C | 0.3% | 140.5hPa | 2.6V | 08:25:37 | 02:41:38 | 00:00:00 | |
| DL1XH-west | 2026-08-31 13:32:11 | 56.76789 | 3.80257 | 61° | 40km/h | 14461m | -27.2m/s | -47.5°C | 0.4% | 134.3hPa | 2.6V | 08:26:28 | 02:41:27 | 00:00:00 | |
| DL1XH-west | 2026-08-31 13:32:00 | 56.76735 | 3.80086 | 60° | 42km/h | 14775m | -29.9m/s | -46.8°C | 0.2% | 128.1hPa | 2.5V | 08:26:28 | 02:41:16 | 00:00:00 | |
| DL1XH-west | 2026-08-31 13:31:49 | 56.76688 | 3.79907 | 56° | 31km/h | 15096m | -28.7m/s | -46.4°C | 0.2% | 122.1hPa | 2.4V | 08:26:28 | 02:41:05 | 00:00:00 | |
| DL1XH-west | 2026-08-31 13:31:38 | 56.76637 | 3.79791 | 56° | 33km/h | 15402m | -27.7m/s | -46.2°C | 0.1% | 116.5hPa | 2.6V | 08:26:28 | 02:40:54 | 00:00:00 | |
| DL1XH-west | 2026-08-31 13:31:27 | 56.76582 | 3.79682 | 42° | 35km/h | 15714m | -29.2m/s | -46.6°C | 0.1% | 111.2hPa | 2.4V | 08:26:28 | 02:40:43 | 00:00:00 | |
| DL1XH-west | 2026-08-31 13:31:17 | 56.76519 | 3.79576 | 46° | 38km/h | 16017m | -32m/s | -46.7°C | 0.1% | 106.2hPa | 2.6V | 08:27:19 | 02:40:33 | 00:00:00 | |
| DL1XH-west | 2026-08-31 13:31:06 | 56.76447 | 3.79425 | 58° | 40km/h | 16353m | -29.7m/s | -47.8°C | 0.2% | 100.9hPa | 2.5V | 08:27:19 | 02:40:22 | 00:00:00 | |
| DM0DOS-11 | 2026-08-31 13:30:55 | 56.76389 | 3.79227 | 66° | 37km/h | 16709m | -31m/s | -48.3°C | 3.4% | 95.6hPa | 2.6V | 08:30:00 | 02:40:10 | 00:00:00 | |
| DL1XH-west | 2026-08-31 13:30:55 | 56.76393 | 3.79243 | 65° | 40km/h | 16677m | -32.9m/s | -48.3°C | 0.3% | 96.1hPa | 2.6V | 08:27:19 | 02:40:11 | 00:00:00 | |
| DL1XH-west | 2026-08-31 13:30:45 | 56.76338 | 3.79106 | 48° | 44km/h | 16997m | -33.2m/s | -48.9°C | 0.4% | 91.5hPa | 2.4V | 08:27:19 | 02:40:01 | 00:00:00 | |
| DJ2DS-15 | 2026-08-31 13:30:39 | 56.76298 | 3.79016 | 52° | 40km/h | 17198m | -33.6m/s | -48.7°C | 1.1% | 88.8hPa | 2.6V | 00:00:00 | 00:00:00 | 00:00:00 | |
| DM0DOS-11 | 2026-08-31 13:30:35 | 56.76250 | 3.78897 | 50° | 37km/h | 17514m | -38.4m/s | -48.4°C | 3.5% | 84.5hPa | 2.6V | 08:30:00 | 02:39:46 | 00:00:00 | |
| DL1XH-west | 2026-08-31 13:30:34 | 56.76272 | 3.78949 | 54° | 35km/h | 17372m | -35.6m/s | -48.1°C | 0.5% | 86.4hPa | 2.4V | 08:27:19 | 02:39:50 | 00:00:00 | |
| DJ2DS-15 | 2026-08-31 13:30:27 | 56.76232 | 3.78859 | 52° | 35km/h | 17627m | -37.8m/s | -48.8°C | 3.7% | 83.1hPa | 2.4V | 00:00:00 | 02:39:43 | 00:00:00 | |
| DM0DOS-11 | 2026-08-31 13:30:25 | 56.76197 | 3.78768 | 57° | 37km/h | 17878m | -35.4m/s | -48.4°C | 3.6% | 79.9hPa | 2.4V | 08:30:00 | 02:39:36 | 00:00:00 | |
| DL1XH-west | 2026-08-31 13:30:24 | 56.76217 | 3.78820 | 55° | 35km/h | 17738m | -35.9m/s | -49.2°C | 0.6% | 81.7hPa | 2.6V | 08:28:10 | 02:39:40 | 00:00:00 | |
| DL1XH-west | 2026-08-31 13:30:13 | 56.76165 | 3.78674 | 53° | 33km/h | 18122m | -35m/s | -47.2°C | 0.2% | 77hPa | 2.6V | 08:28:10 | 02:39:29 | 00:00:00 | |
| DM0DOS-11 | 2026-08-31 13:30:13 | 56.76135 | 3.78623 | 35° | 33km/h | 18293m | -35.1m/s | -46.8°C | 3.1% | 75hPa | 2.4V | 08:30:00 | 02:39:24 | 00:00:00 | |
| DL1XH-west | 2026-08-31 13:30:02 | 56.76082 | 3.78560 | 40° | 37km/h | 18539m | -35.2m/s | -47.3°C | 0.2% | 72.3hPa | 2.4V | 08:28:10 | 02:39:17 | 00:00:00 | |
| DM0DOS-11 | 2026-08-31 13:30:01 | 56.76058 | 3.78515 | 46° | 33km/h | 18686m | -38.4m/s | -47.1°C | 3.1% | 70.7hPa | 2.6V | 08:30:00 | 02:39:13 | 00:00:00 | |
| DL1XH-west | 2026-08-31 13:29:51 | 56.76036 | 3.78467 | 57° | 18km/h | 18922m | -39.8m/s | -47.2°C | 0.2% | 68.3hPa | 2.4V | 08:28:10 | 02:39:07 | 00:00:00 | |
| DL1XH-west | 2026-08-31 13:29:40 | 56.75986 | 3.78403 | 37° | 31km/h | 19357m | -40m/s | -49°C | 0.4% | 63.9hPa | 2.6V | 08:29:01 | 02:38:56 | 00:00:00 | |
| DM0DOS-11 | 2026-08-31 13:29:35 | 56.75925 | 3.78297 | 51° | 37km/h | 19762m | -42.4m/s | -49.7°C | 3.7% | 60hPa | 2.4V | 08:30:00 | 02:38:46 | 00:00:00 | |
| DL1XH-west | 2026-08-31 13:29:29 | 56.75920 | 3.78284 | 50° | 37km/h | 19804m | -42.6m/s | -49.7°C | 0.5% | 59.6hPa | 2.4V | 08:29:01 | 02:38:45 | 00:00:00 | |
| DL1XH-west | 2026-08-31 13:29:18 | 56.75882 | 3.78194 | 24° | 18km/h | 20249m | -41.1m/s | -49.8°C | 0.7% | 55.7hPa | 2.6V | 08:29:01 | 02:38:34 | 00:00:00 | |
| DL1XH-west | 2026-08-31 13:29:08 | 56.75844 | 3.78140 | 38° | 15km/h | 20682m | -46m/s | -48.3°C | 0.4% | 52.1hPa | 2.4V | 08:29:01 | 02:38:24 | 00:00:00 | |
| DJ2DS-15 | 2026-08-31 13:29:06 | 56.75838 | 3.78131 | 33° | 22km/h | 20774m | -46.2m/s | -48.2°C | 3.3% | 51.4hPa | 2.6V | 00:00:00 | 02:38:22 | 00:00:00 | |
| DM0DOS-11 | 2026-08-31 13:29:00 | 56.75789 | 3.78085 | 38° | 27km/h | 21228m | -44.7m/s | -48.8°C | 3.4% | 47.9hPa | 2.6V | 08:30:00 | 02:38:12 | 00:00:00 | |
| DL1XH-west | 2026-08-31 13:28:57 | 56.75795 | 3.78093 | 35° | 27km/h | 21184m | -45.1m/s | -48.6°C | 0.4% | 48.3hPa | 2.6V | 08:29:01 | 02:38:13 | 00:00:00 | |
| DJ2DS-15 | 2026-08-31 13:28:51 | 56.75768 | 3.78044 | 49° | 20km/h | 21455m | -47.3m/s | -49.3°C | 1.0% | 46.3hPa | 2.6V | 00:00:00 | 00:00:00 | 00:00:00 | |
| DM0DOS-11 | 2026-08-31 13:28:47 | 56.75742 | 3.78008 | 37° | 15km/h | 21839m | -50.6m/s | -49.6°C | 3.6% | 43.7hPa | 2.6V | 08:30:00 | 02:37:59 | 00:00:00 | |
| DL1XH-west | 2026-08-31 13:28:46 | 56.75752 | 3.78020 | 30° | 15km/h | 21692m | -48.6m/s | -49.2°C | 0.4% | 44.6hPa | 2.4V | 08:29:52 | 02:38:02 | 00:00:00 | |
| DL1XH-west | 2026-08-31 13:28:36 | 56.75722 | 3.77974 | 48° | 16km/h | 22198m | -51.6m/s | -49.7°C | 0.5% | 41.3hPa | 2.6V | 08:29:52 | 02:37:52 | 00:00:00 | |
| DM0DOS-11 | 2026-08-31 13:28:35 | 56.75713 | 3.77958 | 42° | 18km/h | 22351m | -51.7m/s | -50°C | 3.7% | 40.4hPa | 2.4V | 08:30:00 | 02:37:49 | 00:00:00 | |
| DL1XH-west | 2026-08-31 13:28:25 | 56.75683 | 3.77897 | 52° | 26km/h | 22752m | -49.9m/s | -50.2°C | 0.6% | 37.9hPa | 2.4V | 08:29:52 | 02:37:41 | 00:00:00 | |
| DM0DOS-11 | 2026-08-31 13:28:15 | 56.75644 | 3.77784 | 40° | 22km/h | 23528m | -54.7m/s | -49.5°C | 3.6% | 33.6hPa | 2.6V | 08:30:00 | 02:37:26 | 00:00:00 | |
| DL1XH-west | 2026-08-31 13:28:14 | 56.75658 | 3.77807 | 44° | 18km/h | 23311m | -54.2m/s | -49.8°C | 0.5% | 34.8hPa | 2.6V | 08:29:52 | 02:37:30 | 00:00:00 | |
| DL1XH-west | 2026-08-31 13:28:03 | 56.75620 | 3.77739 | 52° | 20km/h | 23918m | -56.7m/s | -49.9°C | 0.5% | 31.7hPa | 2.6V | 08:29:52 | 02:37:19 | 00:00:00 | |
| DM0DOS-11 | 2026-08-31 13:28:02 | 56.75612 | 3.77720 | 49° | 18km/h | 24085m | -57m/s | -50.1°C | 3.7% | 30.8hPa | 2.6V | 08:30:00 | 02:37:16 | 00:00:00 | |
| DL1XH-west | 2026-08-31 13:27:52 | 56.75592 | 3.77671 | 76° | 15km/h | 24518m | -54.1m/s | -49.5°C | 0.5% | 28.8hPa | 2.4V | 18:12:15 | 02:37:08 | 00:00:00 | |
| DJ2DS-15 | 2026-08-31 13:27:46 | 56.75592 | 3.77638 | 98° | 9km/h | 24839m | -54.8m/s | -49.4°C | 3.4% | 27.4hPa | 2.6V | 00:00:00 | 02:37:02 | 00:00:00 | |
| DM0DOS-11 | 2026-08-31 13:27:45 | 56.75587 | 3.77638 | 337° | 9km/h | 25103m | -53.1m/s | -50.1°C | 3.6% | 26.3hPa | 2.6V | 08:30:00 | 02:36:57 | 00:00:00 | |
| DL1XH-west | 2026-08-31 13:27:42 | 56.75589 | 3.77637 | 346° | 7km/h | 25051m | -52.6m/s | -50.2°C | 0.5% | 26.5hPa | 2.6V | 18:12:15 | 02:36:58 | 00:00:00 | |
| DL1XH-west | 2026-08-31 13:27:31 | 56.75564 | 3.77648 | 355° | 9km/h | 25614m | -45.8m/s | -50.7°C | 0.5% | 24.3hPa | 2.4V | 18:12:15 | 02:36:47 | 00:00:00 | |
| DL1XH-west | 2026-08-31 13:27:20 | 56.75519 | 3.77648 | 355° | 24km/h | 25888m | 4.8m/s | -51.5°C | 0.9% | 23.2hPa | 2.5V | 18:12:15 | 02:36:36 | 00:00:00 | |
| DL1XH-west | 2026-08-31 13:27:09 | 56.75484 | 3.77666 | 308° | 9km/h | 25839m | 4.3m/s | -51.4°C | 0.9% | 23.4hPa | 2.5V | 18:12:15 | 02:36:25 | 00:00:00 | |
| DJ2DS-15 | 2026-08-31 13:27:06 | 56.75477 | 3.77677 | 318° | 11km/h | 25825m | 4.8m/s | -51.3°C | 4.1% | 23.4hPa | 2.6V | 00:00:00 | 02:36:22 | 00:00:00 | |
| DJ2DS-15 | 2026-08-31 13:27:03 | 56.75469 | 3.77689 | 328° | 11km/h | 25811m | 5.1m/s | -51.4°C | 1.2% | 23.5hPa | 2.6V | 00:00:00 | 00:00:00 | 00:00:00 | |
| DM0DOS-11 | 2026-08-31 13:27:01 | 56.75462 | 3.77696 | 322° | 9km/h | 25793m | 4.7m/s | -51.4°C | 4% | 23.6hPa | 2.6V | 08:30:00 | 02:36:15 | 00:00:00 | |
| DL1XH-west | 2026-08-31 13:26:59 | 56.75462 | 3.77696 | 322° | 9km/h | 25793m | 4.7m/s | -51.4°C | 0.8% | 23.6hPa | 2.6V | 18:12:15 | 02:36:15 | 00:00:00 | |
| DM0DOS-11 | 2026-08-31 13:26:50 | 56.75435 | 3.77718 | 343° | 11km/h | 25748m | 5.1m/s | -51.1°C | 4% | 23.8hPa | 2.5V | 08:30:00 | 02:36:05 | 00:00:00 | |
| DL1XH-west | 2026-08-31 13:26:48 | 56.75433 | 3.77719 | 355° | 9km/h | 25743m | 4.1m/s | -51.1°C | 0.9% | 23.8hPa | 2.5V | 18:12:15 | 02:36:04 | 00:00:00 | |
| DJ2DS-15 | 2026-08-31 13:26:46 | 56.75429 | 3.77719 | 348° | 9km/h | 25735m | 5.0m/s | -51.0°C | 4.1% | 23.8hPa | 2.6V | 00:00:00 | 02:36:02 | 00:00:00 | |
| DM0DOS-11 | 2026-08-31 13:26:44 | 56.75416 | 3.77725 | 16° | 11km/h | 25703m | 4.1m/s | -51°C | 4% | 23.9hPa | 2.6V | 08:30:00 | 02:35:55 | 00:00:00 | |
| DL1XH-west | 2026-08-31 13:26:37 | 56.75409 | 3.77723 | 358° | 16km/h | 25693m | 4.8m/s | -50.9°C | 0.8% | 23.9hPa | 2.6V | 18:12:15 | 02:35:53 | 00:00:00 | |
| DM0DOS-11 | 2026-08-31 13:26:34 | 56.75387 | 3.77728 | 310° | 5km/h | 25656m | 4.8m/s | -50.8°C | 3.9% | 24.1hPa | 2.6V | 08:30:00 | 02:35:45 | 00:00:00 | |
| DL1XH-west | 2026-08-31 13:26:27 | 56.75386 | 3.77730 | 23° | 0km/h | 25646m | 5.1m/s | -50.9°C | 0.9% | 24.1hPa | 2.5V | 18:12:15 | 02:35:43 | 00:00:00 | |
| DJ2DS-15 | 2026-08-31 13:26:26 | 56.75386 | 3.77729 | 53° | 9km/h | 25642m | 4.1m/s | -50.7°C | 4.0% | 24.1hPa | 2.5V | 00:00:00 | 02:35:42 | 08:30:00 | |
| DM0DOS-11 | 2026-08-31 13:26:20 | 56.75364 | 3.77723 | 15° | 13km/h | 25608m | 4.2m/s | -50.8°C | 4% | 24.3hPa | 2.5V | 08:30:00 | 02:35:35 | 00:00:00 | |
| DL1XH-west | 2026-08-31 13:26:17 | 56.75358 | 3.77721 | 6° | 9km/h | 25599m | 4.8m/s | -50.7°C | 0.7% | 24.3hPa | 2.6V | 18:12:15 | 02:35:33 | 00:00:00 | |
| DM0DOS-11 | 2026-08-31 13:26:08 | 56.75332 | 3.77725 | 297° | 4km/h | 25534m | 4.2m/s | -50.5°C | 3.9% | 24.5hPa | 2.6V | 08:30:00 | 02:35:19 | 00:00:00 | |
| DL1XH-west | 2026-08-31 13:26:06 | 56.75337 | 3.77722 | 341° | 11km/h | 25548m | 4.5m/s | -50.5°C | 0.7% | 24.5hPa | 2.5V | 18:12:15 | 02:35:22 | 00:00:00 | |
| DL1XH-west | 2026-08-31 13:25:56 | 56.75333 | 3.77736 | 336° | 5km/h | 25500m | 5.2m/s | -50.5°C | 0.9% | 24.6hPa | 2.6V | 18:12:15 | 02:35:12 | 00:00:00 | |
| DL1XH-west | 2026-08-31 13:25:45 | 56.75317 | 3.77750 | 264° | 7km/h | 25451m | 4.8m/s | -50.4°C | 0.9% | 24.9hPa | 2.5V | 18:12:15 | 02:35:01 | 00:00:00 | |
| DL1XH-west | 2026-08-31 13:25:34 | 56.75311 | 3.77776 | 289° | 5km/h | 25401m | 5.2m/s | -50.3°C | 1% | 25.1hPa | 2.6V | 18:12:15 | 02:34:50 | 00:00:00 | |
| DL1XH-west | 2026-08-31 13:25:24 | 56.75299 | 3.77787 | 318° | 13km/h | 25355m | 4.1m/s | -50.1°C | 0.7% | 25.2hPa | 2.5V | 18:12:15 | 02:34:40 | 00:00:00 | |
| DL1XH-west | 2026-08-31 13:25:13 | 56.75275 | 3.77799 | 322° | 5km/h | 25303m | 5.4m/s | -49.8°C | 0.9% | 25.4hPa | 2.6V | 18:12:15 | 02:34:29 | 00:00:00 | |
| DL1XH-west | 2026-08-31 13:25:03 | 56.75257 | 3.77820 | 331° | 11km/h | 25258m | 4.6m/s | -50.1°C | 0.8% | 25.6hPa | 2.5V | 18:12:15 | 02:34:19 | 00:00:00 | |
| DM0DOS-11 | 2026-08-31 13:24:58 | 56.75232 | 3.77835 | 334° | 15km/h | 25212m | 4.1m/s | -50°C | 3.7% | 25.8hPa | 2.6V | 08:30:00 | 02:34:09 | 00:00:00 | |
| DL1XH-west | 2026-08-31 13:24:52 | 56.75228 | 3.77838 | 336° | 16km/h | 25208m | 4.9m/s | -50.2°C | 0.6% | 25.9hPa | 2.6V | 18:12:15 | 02:34:08 | 00:00:00 | |
| DM0DOS-11 | 2026-08-31 13:24:47 | 56.75184 | 3.77861 | 333° | 16km/h | 25162m | 5m/s | -50.5°C | 4% | 26hPa | 2.5V | 08:30:00 | 02:33:58 | 00:00:00 | |
| DL1XH-west | 2026-08-31 13:24:42 | 56.75184 | 3.77861 | 334° | 16km/h | 25162m | 5m/s | -50.5°C | 0.9% | 26hPa | 2.5V | 18:12:15 | 02:33:58 | 00:00:00 | |
| DJ2DS-15 | 2026-08-31 13:24:39 | 56.75170 | 3.77871 | 343° | 15km/h | 25142m | 4.5m/s | -50.5°C | 1.4% | 26.1hPa | 2.6V | 00:00:00 | 00:00:00 | 00:00:00 | |
| DM0DOS-11 | 2026-08-31 13:24:36 | 56.75147 | 3.77875 | 338° | 11km/h | 25112m | 5.1m/s | -50.4°C | 3.8% | 26.2hPa | 2.6V | 08:30:00 | 02:33:47 | 00:00:00 | |
| DL1XH-west | 2026-08-31 13:24:31 | 56.75147 | 3.77875 | 339° | 11km/h | 25112m | 5.1m/s | -50.4°C | 0.7% | 26.2hPa | 2.6V | 18:12:15 | 02:33:47 | 00:00:00 | |
| DJ2DS-15 | 2026-08-31 13:24:26 | 56.75138 | 3.77888 | 346° | 4km/h | 25090m | 4.1m/s | -50.2°C | 3.8% | 26.3hPa | 2.6V | 00:00:00 | 02:33:42 | 00:00:00 | |
| DM0DOS-11 | 2026-08-31 13:24:22 | 56.75132 | 3.77881 | 32° | 7km/h | 25068m | 4.8m/s | -50.1°C | 3.9% | 26.4hPa | 2.5V | 08:30:00 | 02:33:37 | 00:00:00 | |
| DL1XH-west | 2026-08-31 13:24:20 | 56.75131 | 3.77879 | 44° | 5km/h | 25063m | 4.7m/s | -50°C | 0.6% | 26.4hPa | 2.5V | 18:12:15 | 02:33:36 | 00:00:00 | |
| DM0DOS-11 | 2026-08-31 13:24:16 | 56.75128 | 3.77885 | 147° | 2km/h | 25022m | 4.4m/s | -50.2°C | 3.9% | 26.6hPa | 2.6V | 08:30:00 | 02:33:27 | 00:00:00 | |
| DL1XH-west | 2026-08-31 13:24:09 | 56.75128 | 3.77884 | 39° | 2km/h | 25013m | 4.3m/s | -50.2°C | 0.7% | 26.6hPa | 2.6V | 18:12:15 | 02:33:25 | 00:00:00 | |
| DM0DOS-11 | 2026-08-31 13:24:06 | 56.75128 | 3.77892 | 287° | 5km/h | 24977m | 3.5m/s | -50.2°C | 3.9% | 26.8hPa | 2.5V | 08:30:00 | 02:33:17 | 00:00:00 | |
| DL1XH-west | 2026-08-31 13:23:58 | 56.75130 | 3.77893 | 142° | 9km/h | 24963m | 4.6m/s | -50.1°C | 0.5% | 26.8hPa | 2.6V | 18:12:15 | 02:33:14 | 00:00:00 | |
| DM0DOS-11 | 2026-08-31 13:23:56 | 56.75140 | 3.77868 | 174° | 9km/h | 24932m | 4.2m/s | -50°C | 3.8% | 26.9hPa | 2.6V | 08:30:00 | 02:33:07 | 00:00:00 | |
| DL1XH-west | 2026-08-31 13:23:47 | 56.75148 | 3.77864 | 125° | 5km/h | 24914m | 4.5m/s | -49.8°C | 0.6% | 27hPa | 2.5V | 18:12:15 | 02:33:03 | 00:00:00 | |
| DJ2DS-15 | 2026-08-31 13:23:46 | 56.75149 | 3.77862 | 113° | 13km/h | 24910m | 3.8m/s | -49.9°C | 3.8% | 27.0hPa | 2.6V | 00:00:00 | 02:33:02 | 00:00:00 | |
| DM0DOS-11 | 2026-08-31 13:23:45 | 56.75158 | 3.77847 | 141° | 15km/h | 24887m | 5.2m/s | -49.8°C | 3.8% | 27.1hPa | 2.6V | 08:30:00 | 02:32:57 | 00:00:00 | |
| DL1XH-west | 2026-08-31 13:23:36 | 56.75171 | 3.77823 | 138° | 15km/h | 24864m | 4m/s | -49.7°C | 0.9% | 27.2hPa | 2.6V | 18:12:15 | 02:32:52 | 00:00:00 | |
| DL1XH-west | 2026-08-31 13:23:26 | 56.75190 | 3.77779 | 125° | 16km/h | 24818m | 4.9m/s | -49.4°C | 0.6% | 27.4hPa | 2.5V | 18:12:15 | 02:32:42 | 00:00:00 | |
| DL1XH-west | 2026-08-31 13:23:15 | 56.75215 | 3.77695 | 130° | 20km/h | 24768m | 4m/s | -49.3°C | 0.5% | 27.7hPa | 2.6V | 18:12:15 | 02:32:31 | 00:00:00 | |
| DL1XH-west | 2026-08-31 13:23:05 | 56.75234 | 3.77604 | 99° | 22km/h | 24721m | 4.4m/s | -49°C | 0.5% | 27.9hPa | 2.5V | 18:12:15 | 02:32:21 | 00:00:00 | |
| DM0DOS-11 | 2026-08-31 13:22:56 | 56.75251 | 3.77460 | 88° | 24km/h | 24658m | 4.3m/s | -49.3°C | 3.7% | 28.1hPa | 2.5V | 08:30:00 | 02:32:07 | 00:00:00 | |
| DL1XH-west | 2026-08-31 13:22:55 | 56.75251 | 3.77501 | 102° | 20km/h | 24676m | 4m/s | -49.1°C | 0.4% | 28hPa | 2.6V | 18:12:15 | 02:32:11 | 00:00:00 | |
| DM0DOS-11 | 2026-08-31 13:22:46 | 56.75255 | 3.77348 | 92° | 26km/h | 24614m | 3.5m/s | -49.6°C | 3.6% | 28.3hPa | 2.6V | 08:30:00 | 02:31:57 | 00:00:00 | |
| DL1XH-west | 2026-08-31 13:22:45 | 56.75252 | 3.77397 | 92° | 29km/h | 24631m | 4.6m/s | -49.5°C | 0.7% | 28.2hPa | 2.6V | 18:12:15 | 02:32:01 | 00:00:00 | |
| DL1XH-west | 2026-08-31 13:22:34 | 56.75244 | 3.77277 | 67° | 20km/h | 24584m | 3.8m/s | -49.4°C | 0.6% | 28.4hPa | 2.6V | 18:12:15 | 02:31:50 | 00:00:00 | |
| DL1XH-west | 2026-08-31 13:22:23 | 56.75216 | 3.77178 | 50° | 20km/h | 24537m | 5m/s | -49.7°C | 0.6% | 28.6hPa | 2.5V | 18:12:15 | 02:31:39 | 00:00:00 | |
| DL1XH-west | 2026-08-31 13:22:12 | 56.75181 | 3.77105 | 44° | 24km/h | 24489m | 3.7m/s | -49.9°C | 0.6% | 28.9hPa | 2.6V | 18:12:15 | 02:31:28 | 00:00:00 | |
| DL1XH-west | 2026-08-31 13:22:01 | 56.75132 | 3.77066 | 29° | 20km/h | 24442m | 4.9m/s | -50.4°C | 0.7% | 29.1hPa | 2.5V | 18:12:15 | 02:31:17 | 00:00:00 | |
| DL1XH-west | 2026-08-31 13:21:50 | 56.75084 | 3.77023 | 20° | 16km/h | 24394m | 3.6m/s | -50.6°C | 0.9% | 29.3hPa | 2.6V | 18:12:15 | 02:31:06 | 00:00:00 | |
| DL1XH-west | 2026-08-31 13:21:40 | 56.75034 | 3.76982 | 39° | 24km/h | 24352m | 4.2m/s | -50.7°C | 1% | 29.5hPa | 2.6V | 18:12:15 | 02:30:56 | 00:00:00 | |
| DL1XH-west | 2026-08-31 13:21:29 | 56.74985 | 3.76918 | 33° | 18km/h | 24305m | 3.5m/s | -50.9°C | 0.7% | 29.7hPa | 2.6V | 18:12:15 | 02:30:45 | 00:00:00 | |
| DL1XH-west | 2026-08-31 13:21:18 | 56.74942 | 3.76856 | 26° | 20km/h | 24260m | 4.1m/s | -51.3°C | 0.8% | 29.9hPa | 2.5V | 18:12:15 | 02:30:34 | 00:00:00 | |
| DL1XH-west | 2026-08-31 13:21:08 | 56.74897 | 3.76840 | 7° | 15km/h | 24217m | 3.6m/s | -51.2°C | 0.7% | 30.1hPa | 2.6V | 18:12:15 | 02:30:24 | 00:00:00 | |
| DL1XH-west | 2026-08-31 13:20:57 | 56.74855 | 3.76797 | 50° | 15km/h | 24169m | 3.9m/s | -51.1°C | 0.8% | 30.3hPa | 2.5V | 18:12:15 | 02:30:13 | 00:00:00 | |
| DL1XH-west | 2026-08-31 13:20:47 | 56.74820 | 3.76753 | 43° | 24km/h | 24126m | 4.1m/s | -51°C | 0.9% | 30.5hPa | 2.6V | 18:12:15 | 02:30:03 | 00:00:00 | |
| GOEST3-10 | 2026-08-31 13:20:43 | 56.74805 | 3.76723 | 53° | 16km/h | 24110m | 3.6m/s | 0°C | 0% | 0hPa | 2.5V | 00:00:00 | 02:29:59 | 00:00:00 | |
| DM0DOS-11 | 2026-08-31 13:20:39 | 56.74767 | 3.76667 | 48° | 22km/h | 24065m | 3.4m/s | -51.3°C | 4.1% | 30.8hPa | 2.5V | 08:30:00 | 02:29:48 | 00:00:00 | |
| DL1XH-west | 2026-08-31 13:20:38 | 56.74771 | 3.76674 | 48° | 22km/h | 24069m | 4m/s | -51.2°C | 0.9% | 30.8hPa | 2.5V | 18:12:15 | 02:29:49 | 00:00:00 | |
| DJ2DS-15 | 2026-08-31 13:20:31 | 56.74764 | 3.76659 | 53° | 20km/h | 24061m | 4.0m/s | -51.3°C | 1.1% | 30.9hPa | 2.5V | 00:00:00 | 00:00:00 | 00:00:00 | |
| GOEST3-10 | 2026-08-31 13:20:29 | 56.74756 | 3.76638 | 56° | 18km/h | 24048m | 3.9m/s | 0°C | 0% | 0hPa | 2.5V | 00:00:00 | 00:00:00 | 00:00:00 | |
| DJ2DS-15 | 2026-08-31 13:20:26 | 56.74751 | 3.76627 | 41° | 18km/h | 24040m | 3.7m/s | -51.1°C | 4.0% | 30.9hPa | 2.5V | 00:00:00 | 02:29:42 | 08:30:00 | |
| DM0DOS-11 | 2026-08-31 13:20:25 | 56.74731 | 3.76594 | 40° | 24km/h | 24015m | 4.3m/s | -51.1°C | 4% | 31.1hPa | 2.5V | 08:30:00 | 02:29:36 | 00:00:00 | |
| DL1XH-west | 2026-08-31 13:20:24 | 56.74745 | 3.76617 | 42° | 16km/h | 24031m | 4.6m/s | -51.2°C | 0.7% | 31hPa | 2.6V | 18:12:15 | 02:29:40 | 00:00:00 | |
| DL1XH-west | 2026-08-31 13:20:13 | 56.74706 | 3.76553 | 30° | 15km/h | 23985m | 3.9m/s | -51°C | 0.9% | 31.2hPa | 2.5V | 18:12:15 | 02:29:29 | 00:00:00 | |
| DM0DOS-11 | 2026-08-31 13:20:12 | 56.74693 | 3.76542 | 21° | 16km/h | 23969m | 4.4m/s | -51°C | 4% | 31.3hPa | 2.5V | 08:30:00 | 02:29:25 | 00:00:00 | |
| DJ2DS-15 | 2026-08-31 13:20:06 | 56.74677 | 3.76529 | 30° | 22km/h | 23957m | 3.5m/s | -50.8°C | 4.0% | 31.3hPa | 2.6V | 00:00:00 | 02:29:22 | 00:00:00 | |
| DM0DOS-11 | 2026-08-31 13:20:05 | 56.74647 | 3.76491 | 9° | 18km/h | 23928m | 4.1m/s | -51°C | 4% | 31.5hPa | 2.6V | 08:30:00 | 02:29:15 | 00:00:00 | |
| DL1XH-west | 2026-08-31 13:20:02 | 56.74660 | 3.76502 | 42° | 20km/h | 23941m | 3.3m/s | -50.9°C | 0.9% | 31.4hPa | 2.5V | 18:12:15 | 02:29:18 | 00:00:00 | |
| DL1XH-west | 2026-08-31 13:19:51 | 56.74606 | 3.76472 | 34° | 26km/h | 23895m | 4.9m/s | -51°C | 0.9% | 31.6hPa | 2.6V | 18:12:15 | 02:29:07 | 00:00:00 | |
| DM0DOS-11 | 2026-08-31 13:19:51 | 56.74596 | 3.76459 | 40° | 22km/h | 23887m | 3.3m/s | -50.9°C | 4% | 31.7hPa | 2.5V | 08:30:00 | 02:29:05 | 00:00:00 | |
| DJ2DS-15 | 2026-08-31 13:19:46 | 56.74581 | 3.76442 | 21° | 24km/h | 23875m | 3.2m/s | -50.8°C | 4.0% | 31.7hPa | 2.6V | 00:00:00 | 02:29:02 | 00:00:00 | |
| DM0DOS-11 | 2026-08-31 13:19:40 | 56.74543 | 3.76430 | 6° | 24km/h | 23847m | 4m/s | -51°C | 4.1% | 31.9hPa | 2.6V | 08:30:00 | 02:28:55 | 00:00:00 | |
| DL1XH-west | 2026-08-31 13:19:40 | 56.74549 | 3.76431 | 4° | 24km/h | 23852m | 4.6m/s | -50.9°C | 0.7% | 31.9hPa | 2.6V | 18:12:15 | 02:28:56 | 00:00:00 | |
| DM0DOS-11 | 2026-08-31 13:19:30 | 56.74488 | 3.76405 | 5° | 24km/h | 23805m | 3.6m/s | -50.8°C | 4.1% | 32.1hPa | 2.6V | 08:30:00 | 02:28:45 | 00:00:00 | |
| DL1XH-west | 2026-08-31 13:19:30 | 56.74493 | 3.76406 | 8° | 22km/h | 23809m | 3.9m/s | -50.8°C | 0.9% | 32.1hPa | 2.6V | 18:12:15 | 02:28:46 | 00:00:00 | |
| DM0DOS-11 | 2026-08-31 13:19:21 | 56.74430 | 3.76389 | 15° | 24km/h | 23766m | 3.4m/s | -50.6°C | 4% | 32.3hPa | 2.5V | 08:30:00 | 02:28:35 | 00:00:00 | |
| DL1XH-west | 2026-08-31 13:19:20 | 56.74437 | 3.76392 | 16° | 26km/h | 23770m | 3.4m/s | -50.7°C | 0.7% | 32.3hPa | 2.5V | 18:12:15 | 02:28:36 | 00:00:00 | |
| DJ2DS-15 | 2026-08-31 13:19:19 | 56.74430 | 3.76389 | 15° | 24km/h | 23766m | 3.4m/s | -50.6°C | 1.2% | 32.3hPa | 2.6V | 00:00:00 | 00:00:00 | 00:00:00 | |
| DM0DOS-11 | 2026-08-31 13:19:10 | 56.74379 | 3.76400 | 354° | 18km/h | 23727m | 3.3m/s | -50.5°C | 4% | 32.5hPa | 2.6V | 08:30:00 | 02:28:25 | 00:00:00 | |
| DL1XH-west | 2026-08-31 13:19:10 | 56.74384 | 3.76399 | 345° | 18km/h | 23731m | 3.5m/s | -50.5°C | 0.7% | 32.5hPa | 2.6V | 18:12:15 | 02:28:26 | 00:00:00 | |
| DJ2DS-15 | 2026-08-31 13:19:06 | 56.74363 | 3.76399 | 5° | 18km/h | 23716m | 3.2m/s | -50.5°C | 4.0% | 32.5hPa | 2.6V | 00:00:00 | 02:28:22 | 00:00:00 | |
| DM0DOS-11 | 2026-08-31 13:19:00 | 56.74325 | 3.76397 | 354° | 24km/h | 23688m | 3.5m/s | -50.3°C | 3.9% | 32.7hPa | 2.6V | 08:30:00 | 02:28:15 | 00:00:00 | |
| DL1XH-west | 2026-08-31 13:18:59 | 56.74325 | 3.76398 | 355° | 24km/h | 23688m | 3.5m/s | -50.3°C | 0.8% | 32.7hPa | 2.6V | 18:12:15 | 02:28:15 | 00:00:00 | |
| DM0DOS-11 | 2026-08-31 13:18:51 | 56.74281 | 3.76391 | 10° | 18km/h | 23649m | 4.3m/s | -50.2°C | 3.8% | 32.9hPa | 2.5V | 08:30:00 | 02:28:05 | 00:00:00 | |
| DL1XH-west | 2026-08-31 13:18:49 | 56.74280 | 3.76391 | 11° | 18km/h | 23649m | 4.4m/s | -50.2°C | 0.7% | 32.9hPa | 2.5V | 18:12:15 | 02:28:05 | 00:00:00 | |
| DJ2DS-15 | 2026-08-31 13:18:46 | 56.74268 | 3.76388 | 3° | 16km/h | 23637m | 4.5m/s | -50.2°C | 3.9% | 32.9hPa | 2.6V | 00:00:00 | 02:28:02 | 00:00:00 | |
| DJ2DS-15 | 2026-08-31 13:18:43 | 56.74257 | 3.76387 | 7° | 11km/h | 23624m | 4.3m/s | -50.2°C | 1.0% | 33.0hPa | 2.6V | 00:00:00 | 00:00:00 | 00:00:00 | |
| DM0DOS-11 | 2026-08-31 13:18:40 | 56.74244 | 3.76378 | 29° | 18km/h | 23606m | 3.7m/s | -50.1°C | 4% | 33.1hPa | 2.6V | 08:30:00 | 02:27:55 | 00:00:00 | |
| DL1XH-west | 2026-08-31 13:18:38 | 56.74241 | 3.76374 | 33° | 18km/h | 23602m | 4.3m/s | -50.2°C | 0.9% | 33.1hPa | 2.6V | 18:12:15 | 02:27:54 | 00:00:00 | |
| DM0DOS-11 | 2026-08-31 13:18:30 | 56.74205 | 3.76355 | 17° | 16km/h | 23564m | 4.4m/s | -50.3°C | 3.9% | 33.3hPa | 2.6V | 08:30:00 | 02:27:45 | 00:00:00 | |
| DL1XH-west | 2026-08-31 13:18:28 | 56.74201 | 3.76352 | 23° | 16km/h | 23560m | 4.6m/s | -50.4°C | 0.8% | 33.4hPa | 2.6V | 18:12:15 | 02:27:44 | 00:00:00 | |
| DJ2DS-15 | 2026-08-31 13:18:25 | 56.74191 | 3.76339 | 46° | 16km/h | 23547m | 4.6m/s | -50.3°C | 3.9% | 33.3hPa | 2.5V | 00:00:00 | 02:27:41 | 00:00:00 | |
| DM0DOS-11 | 2026-08-31 13:18:21 | 56.74168 | 3.76323 | 358° | 20km/h | 23521m | 4.8m/s | -50°C | 3.8% | 33.5hPa | 2.5V | 08:30:00 | 02:27:35 | 00:00:00 | |
| DL1XH-west | 2026-08-31 13:18:17 | 56.74158 | 3.76324 | 356° | 18km/h | 23513m | 3.8m/s | -50°C | 0.8% | 33.6hPa | 2.6V | 18:12:15 | 02:27:33 | 00:00:00 | |
| DM0DOS-11 | 2026-08-31 13:18:10 | 56.74127 | 3.76317 | 5° | 13km/h | 23478m | 5m/s | -49.7°C | 3.8% | 33.8hPa | 2.6V | 08:30:00 | 02:27:25 | 00:00:00 | |
| DL1XH-west | 2026-08-31 13:18:06 | 56.74115 | 3.76317 | 357° | 16km/h | 23465m | 4m/s | -49.8°C | 0.8% | 33.8hPa | 2.5V | 18:12:15 | 02:27:22 | 00:00:00 | |
| DJ2DS-15 | 2026-08-31 13:18:05 | 56.74111 | 3.76317 | 357° | 13km/h | 23461m | 4.4m/s | -49.6°C | 3.8% | 33.8hPa | 2.6V | 00:00:00 | 02:27:21 | 00:00:00 | |
| DM0DOS-11 | 2026-08-31 13:18:00 | 56.74084 | 3.76311 | 10° | 18km/h | 23436m | 4.8m/s | -49.9°C | 3.8% | 34hPa | 2.6V | 08:30:00 | 02:27:15 | 00:00:00 | |
| DL1XH-west | 2026-08-31 13:17:56 | 56.74076 | 3.76308 | 22° | 5km/h | 23424m | 4.2m/s | -49.9°C | 0.7% | 34hPa | 2.5V | 18:12:15 | 02:27:12 | 00:00:00 | |
| DM0DOS-11 | 2026-08-31 13:17:54 | 56.74062 | 3.76296 | 354° | 13km/h | 23392m | 3.7m/s | -50°C | 3.7% | 34.2hPa | 2.5V | 08:30:00 | 02:27:05 | 00:00:00 | |
| DL1XH-west | 2026-08-31 13:17:45 | 56.74046 | 3.76289 | 30° | 18km/h | 23375m | 3.8m/s | -50°C | 0.8% | 34.3hPa | 2.6V | 18:12:15 | 02:27:01 | 00:00:00 | |
| DJ2DS-15 | 2026-08-31 13:17:45 | 56.74046 | 3.76289 | 30° | 11km/h | 23375m | 3.7m/s | -50.0°C | 3.8% | 34.3hPa | 2.6V | 00:00:00 | 02:27:01 | 00:00:00 | |
| DM0DOS-11 | 2026-08-31 13:17:40 | 56.74031 | 3.76270 | 48° | 11km/h | 23348m | 4.2m/s | -50°C | 3.8% | 34.5hPa | 2.6V | 08:30:00 | 02:26:55 | 00:00:00 | |
| DL1XH-west | 2026-08-31 13:17:34 | 56.74021 | 3.76260 | 32° | 11km/h | 23326m | 5.1m/s | -50.4°C | 0.8% | 34.6hPa | 2.5V | 18:12:15 | 02:26:50 | 00:00:00 | |
| DL1XH-west | 2026-08-31 13:17:24 | 56.74005 | 3.76222 | 62° | 4km/h | 23282m | 4.4m/s | -50.5°C | 0.8% | 34.8hPa | 2.5V | 18:12:15 | 02:26:40 | 00:00:00 | |
| DL1XH-west | 2026-08-31 13:17:13 | 56.74007 | 3.76165 | 88° | 15km/h | 23234m | 3.9m/s | -50.6°C | 0.9% | 35.1hPa | 2.6V | 18:12:15 | 02:26:29 | 00:00:00 | |
| DL1XH-west | 2026-08-31 13:17:03 | 56.74002 | 3.76111 | 85° | 15km/h | 23191m | 4.5m/s | -50.4°C | 0.8% | 35.3hPa | 2.5V | 18:12:15 | 02:26:19 | 00:00:00 | |
| DL1XH-west | 2026-08-31 13:16:53 | 56.73994 | 3.76045 | 103° | 15km/h | 23147m | 3.9m/s | -50.6°C | 0.8% | 35.5hPa | 2.5V | 18:12:15 | 02:26:09 | 00:00:00 | |
| DL1XH-west | 2026-08-31 13:16:43 | 56.74001 | 3.75951 | 87° | 18km/h | 23104m | 3.6m/s | -50.6°C | 0.9% | 35.8hPa | 2.6V | 18:12:15 | 02:25:59 | 00:00:00 | |
| DL1XH-west | 2026-08-31 13:16:33 | 56.74004 | 3.75846 | 93° | 27km/h | 23062m | 4.5m/s | -50.5°C | 0.9% | 36hPa | 2.6V | 18:12:15 | 02:25:49 | 00:00:00 | |
| DM0DOS-11 | 2026-08-31 13:16:25 | 56.73998 | 3.75696 | 87° | 29km/h | 23009m | 4.2m/s | -50.3°C | 3.8% | 36.3hPa | 2.5V | 08:30:00 | 02:25:36 | 00:00:00 | |
| DL1XH-west | 2026-08-31 13:16:22 | 56.73998 | 3.75722 | 92° | 27km/h | 23016m | 3.5m/s | -50.3°C | 0.9% | 36.3hPa | 2.6V | 18:12:15 | 02:25:38 | 00:00:00 | |
| DL1XH-west | 2026-08-31 13:16:11 | 56.73990 | 3.75585 | 70° | 24km/h | 22972m | 3.6m/s | -50.3°C | 0.9% | 36.5hPa | 2.6V | 18:12:15 | 02:25:27 | 00:00:00 | |
| DL1XH-west | 2026-08-31 13:16:00 | 56.73961 | 3.75453 | 72° | 26km/h | 22928m | 4.4m/s | -50.4°C | 0.8% | 36.8hPa | 2.5V | 18:12:15 | 02:25:16 | 00:00:00 | |
| DL1XH-west | 2026-08-31 13:15:50 | 56.73929 | 3.75332 | 58° | 31km/h | 22887m | 4.5m/s | -50.4°C | 0.8% | 37hPa | 2.6V | 18:12:15 | 02:25:06 | 00:00:00 | |
| DL1XH-west | 2026-08-31 13:15:39 | 56.73885 | 3.75215 | 56° | 35km/h | 22843m | 3.4m/s | -50.8°C | 0.8% | 37.3hPa | 2.6V | 18:12:15 | 02:24:55 | 00:00:00 | |
| DL1XH-west | 2026-08-31 13:15:29 | 56.73834 | 3.75111 | 41° | 29km/h | 22801m | 4.6m/s | -50.7°C | 0.9% | 37.5hPa | 2.5V | 18:12:15 | 02:24:45 | 00:00:00 | |
| DL1XH-west | 2026-08-31 13:15:18 | 56.73769 | 3.75012 | 34° | 24km/h | 22756m | 3.4m/s | -50.5°C | 1% | 37.7hPa | 2.6V | 18:12:15 | 02:24:34 | 00:00:00 | |
| DM0DOS-11 | 2026-08-31 13:15:14 | 56.73725 | 3.74942 | 40° | 35km/h | 22722m | 4.3m/s | -50.5°C | 3.9% | 38hPa | 2.5V | 08:30:00 | 02:24:26 | 00:00:00 | |
| DL1XH-west | 2026-08-31 13:15:07 | 56.73705 | 3.74912 | 42° | 31km/h | 22710m | 3.9m/s | -50.3°C | 0.6% | 38hPa | 2.6V | 18:12:15 | 02:24:23 | 00:00:00 | |
| DJ2DS-15 | 2026-08-31 13:15:07 | 56.73705 | 3.74912 | 41° | 29km/h | 22710m | 3.9m/s | -50.3°C | 1.1% | 38.0hPa | 2.6V | 00:00:00 | 00:00:00 | 00:00:00 | |
| DJ2DS-15 | 2026-08-31 13:15:05 | 56.73694 | 3.74894 | 43° | 27km/h | 22702m | 4.0m/s | -50.3°C | 3.9% | 38.1hPa | 2.6V | 00:00:00 | 02:24:21 | 00:00:00 | |
| DM0DOS-11 | 2026-08-31 13:15:04 | 56.73667 | 3.74851 | 42° | 26km/h | 22681m | 3.7m/s | -50.3°C | 3.8% | 38.2hPa | 2.6V | 08:30:00 | 02:24:16 | 00:00:00 | |
| DL1XH-west | 2026-08-31 13:14:57 | 56.73650 | 3.74825 | 39° | 31km/h | 22669m | 3.4m/s | -50.4°C | 0.8% | 38.3hPa | 2.5V | 18:12:15 | 02:24:13 | 00:00:00 | |
| DM0DOS-11 | 2026-08-31 13:14:47 | 56.73587 | 3.74740 | 36° | 24km/h | 22620m | 4.2m/s | -50.4°C | 3.9% | 38.6hPa | 2.5V | 08:30:00 | 02:24:01 | 00:00:00 | |
| DL1XH-west | 2026-08-31 13:14:47 | 56.73592 | 3.74747 | 39° | 22km/h | 22624m | 4.7m/s | -50.3°C | 0.8% | 38.5hPa | 2.6V | 18:12:15 | 02:24:02 | 00:00:00 | |
| DJ2DS-15 | 2026-08-31 13:14:45 | 56.73587 | 3.74740 | 37° | 24km/h | 22620m | 4.2m/s | -50.3°C | 3.9% | 38.5hPa | 2.6V | 00:00:00 | 02:24:01 | 00:00:00 | |
| DM0DOS-11 | 2026-08-31 13:14:40 | 56.73531 | 3.74692 | 30° | 18km/h | 22577m | 3.5m/s | -50.2°C | 3.8% | 38.8hPa | 2.6V | 08:30:00 | 02:23:51 | 00:00:00 | |
| DL1XH-west | 2026-08-31 13:14:36 | 56.73535 | 3.74696 | 25° | 18km/h | 22581m | 4.3m/s | -50.3°C | 0.9% | 38.8hPa | 2.6V | 18:12:15 | 02:23:52 | 00:00:00 | |
| DM0DOS-11 | 2026-08-31 13:14:30 | 56.73480 | 3.74642 | 15° | 20km/h | 22534m | 4.5m/s | -50°C | 3.8% | 39.1hPa | 2.5V | 08:30:00 | 02:23:41 | 00:00:00 | |
| DL1XH-west | 2026-08-31 13:14:26 | 56.73480 | 3.74642 | 15° | 20km/h | 22534m | 4.6m/s | -50°C | 0.7% | 39.1hPa | 2.5V | 18:12:15 | 02:23:41 | 00:00:00 | |
| DJ2DS-15 | 2026-08-31 13:14:25 | 56.73480 | 3.74642 | 16° | 18km/h | 22535m | 4.5m/s | -50.0°C | 3.8% | 39.0hPa | 2.5V | 00:00:00 | 02:23:41 | 08:30:00 | |
| DM0DOS-11 | 2026-08-31 13:14:20 | 56.73438 | 3.74606 | 24° | 24km/h | 22491m | 3.3m/s | -50.2°C | 3.8% | 39.4hPa | 2.6V | 08:30:00 | 02:23:31 | 00:00:00 | |
| DL1XH-west | 2026-08-31 13:14:15 | 56.73433 | 3.74602 | 20° | 22km/h | 22487m | 4.5m/s | -50.3°C | 0.7% | 39.4hPa | 2.5V | 18:12:15 | 02:23:30 | 00:00:00 | |
| DM0DOS-11 | 2026-08-31 13:14:09 | 56.73392 | 3.74574 | 31° | 18km/h | 22445m | 5m/s | -50.3°C | 4% | 39.6hPa | 2.6V | 08:30:00 | 02:23:20 | 00:00:00 | |
| DL1XH-west | 2026-08-31 13:14:04 | 56.73393 | 3.74574 | 32° | 20km/h | 22445m | 5m/s | -50.3°C | 0.9% | 39.6hPa | 2.6V | 18:12:15 | 02:23:20 | 00:00:00 | |
| DM0DOS-11 | 2026-08-31 13:13:59 | 56.73356 | 3.74528 | 32° | 13km/h | 22401m | 4.9m/s | -50.2°C | 3.8% | 39.9hPa | 2.5V | 08:30:00 | 02:23:10 | 00:00:00 | |
| DL1XH-west | 2026-08-31 13:13:55 | 56.73356 | 3.74528 | 33° | 13km/h | 22401m | 4.9m/s | -50.2°C | 0.7% | 39.9hPa | 2.5V | 18:12:15 | 02:23:10 | 00:00:00 | |
| DM0DOS-11 | 2026-08-31 13:13:49 | 56.73320 | 3.74502 | 21° | 16km/h | 22358m | 4.6m/s | -50.2°C | 3.9% | 40.2hPa | 2.5V | 08:30:00 | 02:23:00 | 00:00:00 | |
| DL1XH-west | 2026-08-31 13:13:43 | 56.73316 | 3.74499 | 23° | 16km/h | 22354m | 3.6m/s | -50.2°C | 0.8% | 40.2hPa | 2.5V | 18:12:15 | 02:22:59 | 00:00:00 | |
| DM0DOS-11 | 2026-08-31 13:13:34 | 56.73286 | 3.74474 | 28° | 11km/h | 22303m | 4.5m/s | -50.2°C | 3.9% | 40.5hPa | 2.6V | 08:30:00 | 02:22:47 | 00:00:00 | |
| DL1XH-west | 2026-08-31 13:13:32 | 56.73288 | 3.74476 | 29° | 9km/h | 22307m | 4m/s | -50.3°C | 0.9% | 40.5hPa | 2.6V | 18:12:15 | 02:22:48 | 00:00:00 | |
| DM0DOS-11 | 2026-08-31 13:13:25 | 56.73271 | 3.74447 | 83° | 4km/h | 22260m | 3.2m/s | -50.2°C | 4% | 40.7hPa | 2.6V | 08:30:00 | 02:22:37 | 00:00:00 | |
| DL1XH-west | 2026-08-31 13:13:21 | 56.73271 | 3.74447 | 84° | 5km/h | 22260m | 3.2m/s | -50.2°C | 0.9% | 40.7hPa | 2.6V | 18:12:15 | 02:22:37 | 00:00:00 | |
| DJ2DS-15 | 2026-08-31 13:13:19 | 56.73268 | 3.74437 | 48° | 13km/h | 22248m | 3.6m/s | -50.2°C | 1.2% | 40.9hPa | 2.5V | 00:00:00 | 00:00:00 | 00:00:00 | |
| DM0DOS-11 | 2026-08-31 13:13:13 | 56.73248 | 3.74414 | 17° | 15km/h | 22218m | 4.3m/s | -50°C | 3.8% | 41hPa | 2.5V | 08:30:00 | 02:22:27 | 00:00:00 | |
| DL1XH-west | 2026-08-31 13:13:11 | 56.73248 | 3.74414 | 18° | 15km/h | 22219m | 4.3m/s | -50°C | 0.7% | 41hPa | 2.5V | 18:12:15 | 02:22:27 | 00:00:00 | |
| DM0DOS-11 | 2026-08-31 13:13:06 | 56.73225 | 3.74384 | 43° | 15km/h | 22177m | 4.5m/s | -50.1°C | 3.9% | 41.3hPa | 2.5V | 08:30:00 | 02:22:17 | 00:00:00 | |
| DL1XH-west | 2026-08-31 13:13:01 | 56.73225 | 3.74384 | 43° | 15km/h | 22177m | 4.5m/s | -50.1°C | 0.8% | 41.3hPa | 2.5V | 18:12:15 | 02:22:17 | 00:00:00 | |
| DM0DOS-11 | 2026-08-31 13:12:56 | 56.73195 | 3.74357 | 30° | 9km/h | 22135m | 3.9m/s | -50.1°C | 3.8% | 41.6hPa | 2.6V | 08:30:00 | 02:22:07 | 00:00:00 | |
| DL1XH-west | 2026-08-31 13:12:50 | 56.73193 | 3.74355 | 31° | 9km/h | 22132m | 3.5m/s | -50.1°C | 0.6% | 41.6hPa | 2.6V | 18:12:15 | 02:22:06 | 00:00:00 | |
| DM0DOS-11 | 2026-08-31 13:12:46 | 56.73169 | 3.74320 | 35° | 16km/h | 22095m | 4.1m/s | -50.2°C | 3.8% | 41.8hPa | 2.5V | 08:30:00 | 02:21:57 | 00:00:00 | |
| DL1XH-west | 2026-08-31 13:12:40 | 56.73166 | 3.74316 | 35° | 15km/h | 22091m | 3.7m/s | -50.1°C | 0.7% | 41.9hPa | 2.5V | 18:12:15 | 02:21:56 | 00:00:00 | |
| DM0DOS-11 | 2026-08-31 13:12:36 | 56.73141 | 3.74284 | 33° | 15km/h | 22054m | 3.8m/s | -50.4°C | 3.9% | 42.1hPa | 2.6V | 08:30:00 | 02:21:47 | 00:00:00 | |
| DL1XH-west | 2026-08-31 13:12:29 | 56.73134 | 3.74276 | 28° | 18km/h | 22046m | 3.6m/s | -50.4°C | 0.7% | 42.1hPa | 2.5V | 18:12:15 | 02:21:45 | 00:00:00 | |
| DM0DOS-11 | 2026-08-31 13:12:25 | 56.73107 | 3.74264 | 19° | 11km/h | 22014m | 4.4m/s | -50.3°C | 3.9% | 42.4hPa | 2.6V | 08:30:00 | 02:21:37 | 00:00:00 | |
| DL1XH-west | 2026-08-31 13:12:19 | 56.73103 | 3.74260 | 26° | 11km/h | 22007m | 3.8m/s | -50.3°C | 0.7% | 42.4hPa | 2.6V | 18:12:15 | 02:21:35 | 00:00:00 | |
| DM0DOS-11 | 2026-08-31 13:12:15 | 56.73079 | 3.74231 | 24° | 15km/h | 21976m | 3.8m/s | -50.2°C | 3.8% | 42.6hPa | 2.5V | 08:30:00 | 02:21:27 | 00:00:00 | |
| DL1XH-west | 2026-08-31 13:12:09 | 56.73072 | 3.74226 | 17° | 13km/h | 21968m | 4.3m/s | -50.3°C | 0.7% | 42.6hPa | 2.5V | 18:12:15 | 02:21:25 | 00:00:00 | |
| DJ2DS-15 | 2026-08-31 13:12:07 | 56.73062 | 3.74223 | 12° | 15km/h | 21957m | 5.0m/s | -50.3°C | 1.2% | 42.8hPa | 2.6V | 00:00:00 | 00:00:00 | 00:00:00 | |
| DM0DOS-11 | 2026-08-31 13:12:05 | 56.73043 | 3.74206 | 44° | 13km/h | 21936m | 3.4m/s | -50.3°C | 3.9% | 42.9hPa | 2.6V | 08:30:00 | 02:21:17 | 00:00:00 | |
| DL1XH-west | 2026-08-31 13:11:58 | 56.73036 | 3.74189 | 58° | 16km/h | 21924m | 3.2m/s | -50.3°C | 0.7% | 43hPa | 2.5V | 18:12:15 | 02:21:14 | 00:00:00 | |
| DL1XH-west | 2026-08-31 13:11:47 | 56.73003 | 3.74146 | 35° | 20km/h | 21881m | 3.2m/s | -50.5°C | 0.7% | 43.2hPa | 2.6V | 18:12:15 | 02:21:03 | 00:00:00 | |
| DJ2DS-15 | 2026-08-31 13:11:45 | 56.72997 | 3.74137 | 45° | 11km/h | 21874m | 4.6m/s | -50.4°C | 3.9% | 43.2hPa | 2.6V | 00:00:00 | 02:21:01 | 00:00:00 | |
| DM0DOS-11 | 2026-08-31 13:11:41 | 56.72976 | 3.74116 | 6° | 18km/h | 21839m | 3.8m/s | -50.5°C | 4% | 43.5hPa | 2.6V | 08:30:00 | 02:20:52 | 00:00:00 | |
| DL1XH-west | 2026-08-31 13:11:36 | 56.72976 | 3.74116 | 7° | 18km/h | 21839m | 3.8m/s | -50.5°C | 0.8% | 43.5hPa | 2.6V | 18:12:15 | 02:20:52 | 00:00:00 | |
| DL1XH-west | 2026-08-31 13:11:26 | 56.72948 | 3.74094 | 360° | 11km/h | 21801m | 3.8m/s | -50.6°C | 0.8% | 43.8hPa | 2.5V | 18:12:15 | 02:20:42 | 00:00:00 | |
| DM0DOS-11 | 2026-08-31 13:11:25 | 56.72940 | 3.74098 | 340° | 18km/h | 21793m | 3m/s | -50.5°C | 3.9% | 43.8hPa | 2.6V | 08:30:00 | 02:20:40 | 00:00:00 | |
| DL1XH-west | 2026-08-31 13:11:15 | 56.72903 | 3.74090 | 38° | 13km/h | 21760m | 4.1m/s | -50.4°C | 0.9% | 44hPa | 2.5V | 18:12:15 | 02:20:31 | 00:00:00 | |
| DM0DOS-11 | 2026-08-31 13:11:15 | 56.72900 | 3.74086 | 40° | 13km/h | 21756m | 3.6m/s | -50.4°C | 4% | 44hPa | 2.6V | 08:30:00 | 02:20:30 | 00:00:00 | |
| DM0DOS-11 | 2026-08-31 13:11:05 | 56.72864 | 3.74052 | 44° | 16km/h | 21716m | 3.9m/s | -50.6°C | 3.9% | 44.3hPa | 2.5V | 08:30:00 | 02:20:20 | 00:00:00 | |
| DL1XH-west | 2026-08-31 13:11:05 | 56.72867 | 3.74057 | 33° | 16km/h | 21720m | 3.8m/s | -50.5°C | 0.8% | 44.3hPa | 2.6V | 18:12:15 | 02:20:21 | 00:00:00 | |
| DL1XH-west | 2026-08-31 13:10:55 | 56.72843 | 3.74006 | 39° | 16km/h | 21682m | 4.5m/s | -50.7°C | 1% | 44.6hPa | 2.6V | 18:12:15 | 02:20:11 | 00:00:00 | |
| DJ2DS-15 | 2026-08-31 13:10:54 | 56.72840 | 3.74002 | 34° | 13km/h | 21678m | 3.3m/s | -50.7°C | 1.2% | 44.6hPa | 2.5V | 00:00:00 | 00:00:00 | 00:00:00 | |
| DM0DOS-11 | 2026-08-31 13:10:53 | 56.72834 | 3.73994 | 41° | 16km/h | 21671m | 4.5m/s | -50.7°C | 3.9% | 44.6hPa | 2.5V | 08:30:00 | 02:20:08 | 00:00:00 | |
| DL1XH-west | 2026-08-31 13:10:46 | 56.72819 | 3.73954 | 77° | 15km/h | 21644m | 4.2m/s | -50.6°C | 0.7% | 44.9hPa | 2.5V | 18:12:15 | 02:20:01 | 00:00:00 | |
| DJ2DS-15 | 2026-08-31 13:10:45 | 56.72819 | 3.73954 | 78° | 22km/h | 21645m | 4.2m/s | -50.5°C | 3.8% | 44.8hPa | 2.5V | 00:00:00 | 02:20:01 | 00:00:00 | |
| DM0DOS-11 | 2026-08-31 13:10:43 | 56.72816 | 3.73921 | 77° | 18km/h | 21628m | 3.4m/s | -50.6°C | 3.8% | 44.9hPa | 2.5V | 08:30:00 | 02:19:57 | 00:00:00 | |
| DL1XH-west | 2026-08-31 13:10:34 | 56.72793 | 3.73865 | 43° | 22km/h | 21601m | 3.9m/s | -50.8°C | 0.7% | 45.1hPa | 2.5V | 18:12:15 | 02:19:50 | 00:00:00 | |
| DM0DOS-11 | 2026-08-31 13:10:33 | 56.72780 | 3.73822 | 72° | 22km/h | 21581m | 3.1m/s | -50.8°C | 3.9% | 45.2hPa | 2.6V | 08:30:00 | 02:19:45 | 00:00:00 | |
| DL1XH-west | 2026-08-31 13:10:25 | 56.72764 | 3.73769 | 49° | 26km/h | 21560m | 4.3m/s | -50.7°C | 0.9% | 45.4hPa | 2.6V | 18:12:15 | 02:19:40 | 00:00:00 | |
| DL1XH-west | 2026-08-31 13:10:14 | 56.72720 | 3.73668 | 52° | 33km/h | 21520m | 3.7m/s | -51°C | 1% | 45.7hPa | 2.5V | 18:12:15 | 02:19:30 | 00:00:00 | |
| DM0DOS-11 | 2026-08-31 13:10:10 | 56.72668 | 3.73572 | 42° | 33km/h | 21483m | 3.5m/s | -50.9°C | 4% | 46hPa | 2.6V | 08:30:00 | 02:19:21 | 00:00:00 | |
| DL1XH-west | 2026-08-31 13:10:03 | 56.72656 | 3.73552 | 42° | 33km/h | 21475m | 4.3m/s | -50.9°C | 0.9% | 46hPa | 2.5V | 18:12:15 | 02:19:19 | 00:00:00 | |
| DL1XH-west | 2026-08-31 13:09:52 | 56.72577 | 3.73462 | 28° | 33km/h | 21429m | 4.1m/s | -50.7°C | 1% | 46.4hPa | 2.6V | 18:12:15 | 02:19:08 | 00:00:00 | |
| DM0DOS-11 | 2026-08-31 13:09:51 | 56.72562 | 3.73446 | 33° | 35km/h | 21420m | 3.4m/s | -50.7°C | 4% | 46.4hPa | 2.5V | 08:30:00 | 02:19:06 | 00:00:00 | |
| DL1XH-west | 2026-08-31 13:09:43 | 56.72503 | 3.73387 | 19° | 35km/h | 21387m | 4.4m/s | -50.5°C | 0.8% | 46.6hPa | 2.6V | 18:12:15 | 02:18:58 | 00:00:00 | |
| DL1XH-west | 2026-08-31 13:09:31 | 56.72422 | 3.73329 | 20° | 31km/h | 21339m | 4.5m/s | -50.2°C | 0.8% | 47hPa | 2.5V | 18:12:15 | 02:18:47 | 00:00:00 | |
| DL1XH-west | 2026-08-31 13:09:20 | 56.72348 | 3.73282 | 17° | 27km/h | 21292m | 4.4m/s | -50.1°C | 0.8% | 47.4hPa | 2.5V | 18:12:15 | 02:18:36 | 00:00:00 | |
| DM0DOS-11 | 2026-08-31 13:09:14 | 56.72277 | 3.73239 | 18° | 24km/h | 21244m | 3.7m/s | -49.9°C | 3.8% | 47.7hPa | 2.5V | 08:30:00 | 02:18:25 | 00:00:00 | |
| DL1XH-west | 2026-08-31 13:09:10 | 56.72283 | 3.73242 | 20° | 24km/h | 21248m | 4m/s | -49.8°C | 0.8% | 47.7hPa | 2.6V | 18:12:15 | 02:18:26 | 00:00:00 | |
| DL1XH-west | 2026-08-31 13:08:59 | 56.72221 | 3.73221 | 13° | 22km/h | 21199m | 5.2m/s | -49.7°C | 0.7% | 48hPa | 2.6V | 18:12:15 | 02:18:15 | 00:00:00 | |
| DM0DOS-11 | 2026-08-31 13:08:50 | 56.72158 | 3.73202 | 27° | 13km/h | 21138m | 3.9m/s | -49.8°C | 3.8% | 48.5hPa | 2.5V | 08:30:00 | 02:18:01 | 00:00:00 | |
| DL1XH-west | 2026-08-31 13:08:49 | 56.72172 | 3.73205 | 350° | 16km/h | 21155m | 3.5m/s | -49.8°C | 0.8% | 48.4hPa | 2.6V | 18:12:15 | 02:18:05 | 00:00:00 | |
| DL1XH-west | 2026-08-31 13:08:39 | 56.72140 | 3.73193 | 2° | 16km/h | 21112m | 4.1m/s | -50°C | 0.7% | 48.7hPa | 2.5V | 18:12:15 | 02:17:55 | 00:00:00 | |
| DM0DOS-11 | 2026-08-31 13:08:37 | 56.72127 | 3.73193 | 10° | 13km/h | 21094m | 4.6m/s | -49.9°C | 3.9% | 48.8hPa | 2.6V | 08:30:00 | 02:17:51 | 00:00:00 | |
| DL1XH-west | 2026-08-31 13:08:28 | 56.72110 | 3.73177 | 29° | 13km/h | 21064m | 4.7m/s | -50°C | 0.7% | 49hPa | 2.5V | 18:12:15 | 02:17:44 | 00:00:00 | |
| DJ2DS-15 | 2026-08-31 13:08:25 | 56.72100 | 3.73169 | 28° | 13km/h | 21051m | 4.8m/s | -49.9°C | 4.0% | 49.1hPa | 2.6V | 00:00:00 | 02:17:41 | 08:30:00 | |
| DM0DOS-11 | 2026-08-31 13:08:20 | 56.72089 | 3.73143 | 71° | 11km/h | 21020m | 3.9m/s | -50°C | 4% | 49.4hPa | 2.6V | 08:30:00 | 02:17:34 | 00:00:00 | |
| DL1XH-west | 2026-08-31 13:08:17 | 56.72088 | 3.73138 | 66° | 11km/h | 21015m | 4.6m/s | -50°C | 0.9% | 49.4hPa | 2.6V | 18:12:15 | 02:17:33 | 00:00:00 | |
| DM0DOS-11 | 2026-08-31 13:08:13 | 56.72070 | 3.73090 | 49° | 16km/h | 20976m | 3.2m/s | -49.8°C | 3.9% | 49.7hPa | 2.5V | 08:30:00 | 02:17:24 | 00:00:00 | |
| DL1XH-west | 2026-08-31 13:08:07 | 56.72067 | 3.73084 | 54° | 15km/h | 20972m | 4.7m/s | -49.8°C | 0.8% | 49.7hPa | 2.6V | 18:12:15 | 02:17:23 | 00:00:00 | |
| DJ2DS-15 | 2026-08-31 13:08:05 | 56.72063 | 3.73075 | 50° | 11km/h | 20963m | 4.6m/s | -49.7°C | 3.9% | 49.7hPa | 2.6V | 00:00:00 | 02:17:21 | 00:00:00 | |
| DM0DOS-11 | 2026-08-31 13:08:00 | 56.72047 | 3.73050 | 40° | 9km/h | 20933m | 4.5m/s | -49.7°C | 3.9% | 50hPa | 2.6V | 08:30:00 | 02:17:14 | 00:00:00 | |
| DL1XH-west | 2026-08-31 13:07:57 | 56.72045 | 3.73047 | 39° | 11km/h | 20929m | 4.1m/s | -49.6°C | 0.8% | 50.1hPa | 2.5V | 18:12:15 | 02:17:13 | 00:00:00 | |
| DJ2DS-15 | 2026-08-31 13:07:54 | 56.72038 | 3.73036 | 58° | 9km/h | 20916m | 4.9m/s | -49.6°C | 1.2% | 50.1hPa | 2.6V | 00:00:00 | 00:00:00 | 00:00:00 | |
| DM0DOS-11 | 2026-08-31 13:07:50 | 56.72033 | 3.73011 | 64° | 11km/h | 20890m | 4.1m/s | -49.5°C | 3.9% | 50.3hPa | 2.6V | 08:30:00 | 02:17:04 | 00:00:00 | |
| DL1XH-west | 2026-08-31 13:07:46 | 56.72031 | 3.73002 | 84° | 9km/h | 20882m | 3.8m/s | -49.4°C | 0.8% | 50.4hPa | 2.6V | 18:12:15 | 02:17:02 | 00:00:00 | |
| DJ2DS-15 | 2026-08-31 13:07:45 | 56.72031 | 3.72997 | 83° | 13km/h | 20878m | 4.1m/s | -49.3°C | 3.7% | 50.4hPa | 2.5V | 00:00:00 | 02:17:01 | 00:00:00 | |
| DM0DOS-11 | 2026-08-31 13:07:41 | 56.72028 | 3.72966 | 71° | 13km/h | 20849m | 4.2m/s | -49.3°C | 3.8% | 50.7hPa | 2.5V | 08:30:00 | 02:16:54 | 00:00:00 | |
| DL1XH-west | 2026-08-31 13:07:36 | 56.72025 | 3.72947 | 81° | 15km/h | 20836m | 4.3m/s | -49.1°C | 0.7% | 50.8hPa | 2.6V | 18:12:15 | 02:16:51 | 00:00:00 | |
| DM0DOS-11 | 2026-08-31 13:07:30 | 56.72020 | 3.72896 | 80° | 15km/h | 20807m | 3.5m/s | -49.2°C | 3.7% | 51hPa | 2.6V | 08:30:00 | 02:16:44 | 00:00:00 | |
| DL1XH-west | 2026-08-31 13:07:24 | 56.72016 | 3.72866 | 83° | 16km/h | 20790m | 4.7m/s | -49.2°C | 0.7% | 51.2hPa | 2.6V | 18:12:15 | 02:16:40 | 00:00:00 | |
| DM0DOS-11 | 2026-08-31 13:07:20 | 56.72016 | 3.72820 | 92° | 16km/h | 20764m | 4.9m/s | -49.2°C | 3.7% | 51.4hPa | 2.6V | 08:30:00 | 02:16:34 | 00:00:00 | |
| DL1XH-west | 2026-08-31 13:07:13 | 56.72012 | 3.72783 | 70° | 18km/h | 20744m | 3.8m/s | -49.2°C | 0.7% | 51.5hPa | 2.6V | 18:12:15 | 02:16:29 | 00:00:00 | |
| DL1XH-west | 2026-08-31 13:07:03 | 56.72001 | 3.72703 | 80° | 24km/h | 20705m | 4.5m/s | -49.8°C | 0.6% | 51.8hPa | 2.5V | 18:12:15 | 02:16:19 | 00:00:00 | |
| DL1XH-west | 2026-08-31 13:06:52 | 56.71977 | 3.72630 | 31° | 16km/h | 20661m | 3.6m/s | -49.8°C | 0.6% | 52.2hPa | 2.6V | 18:12:15 | 02:16:08 | 00:00:00 | |
| DL1XH-west | 2026-08-31 13:06:42 | 56.71943 | 3.72570 | 35° | 16km/h | 20619m | 3.8m/s | -49.8°C | 0.7% | 52.5hPa | 2.6V | 18:12:15 | 02:15:58 | 00:00:00 | |
| DM0DOS-11 | 2026-08-31 13:06:41 | 56.71927 | 3.72550 | 42° | 22km/h | 20604m | 3.2m/s | -49.7°C | 3.9% | 52.6hPa | 2.5V | 08:30:00 | 02:15:54 | 00:00:00 | |
| DL1XH-west | 2026-08-31 13:06:32 | 56.71905 | 3.72494 | 56° | 29km/h | 20580m | 3.6m/s | -49.7°C | 0.7% | 52.8hPa | 2.5V | 18:12:15 | 02:15:48 | 00:00:00 | |
| DM0DOS-11 | 2026-08-31 13:06:29 | 56.71878 | 3.72437 | 42° | 26km/h | 20558m | 4.3m/s | -49.7°C | 3.8% | 53hPa | 2.5V | 08:30:00 | 02:15:42 | 00:00:00 | |
| DL1XH-west | 2026-08-31 13:06:21 | 56.71855 | 3.72398 | 42° | 27km/h | 20538m | 3.1m/s | -49.5°C | 0.7% | 53.2hPa | 2.5V | 18:12:15 | 02:15:37 | 00:00:00 | |
| DL1XH-west | 2026-08-31 13:06:11 | 56.71804 | 3.72319 | 35° | 26km/h | 20501m | 4.7m/s | -49.4°C | 0.7% | 53.5hPa | 2.6V | 18:12:15 | 02:15:27 | 00:00:00 | |
| DM0DOS-11 | 2026-08-31 13:06:09 | 56.71777 | 3.72291 | 26° | 26km/h | 20481m | 3.7m/s | -49.4°C | 3.8% | 53.6hPa | 2.6V | 08:30:00 | 02:15:22 | 00:00:00 | |
| DL1XH-west | 2026-08-31 13:06:00 | 56.71741 | 3.72255 | 27° | 27km/h | 20457m | 4.5m/s | -49.3°C | 0.8% | 53.8hPa | 2.6V | 18:12:15 | 02:15:16 | 00:00:00 | |
| DM0DOS-11 | 2026-08-31 13:05:58 | 56.71717 | 3.72236 | 22° | 24km/h | 20441m | 3.5m/s | -49.3°C | 3.7% | 54hPa | 2.5V | 08:30:00 | 02:15:12 | 00:00:00 | |
| DL1XH-west | 2026-08-31 13:05:49 | 56.71675 | 3.72208 | 20° | 27km/h | 20413m | 4.6m/s | -49.3°C | 0.7% | 54.2hPa | 2.6V | 18:12:15 | 02:15:05 | 00:00:00 | |
| DM0DOS-11 | 2026-08-31 13:05:48 | 56.71655 | 3.72196 | 16° | 26km/h | 20402m | 4.1m/s | -49.3°C | 3.7% | 54.3hPa | 2.5V | 08:30:00 | 02:15:02 | 00:00:00 | |
| DL1XH-west | 2026-08-31 13:05:39 | 56.71610 | 3.72181 | 6° | 24km/h | 20374m | 3.5m/s | -49.2°C | 0.6% | 54.5hPa | 2.5V | 18:12:15 | 02:14:55 | 00:00:00 | |
| DM0DOS-11 | 2026-08-31 13:05:38 | 56.71584 | 3.72177 | 5° | 24km/h | 20358m | 4.4m/s | -49.3°C | 3.7% | 54.7hPa | 2.6V | 08:30:00 | 02:14:51 | 00:00:00 | |
| DL1XH-west | 2026-08-31 13:05:28 | 56.71540 | 3.72174 | 360° | 24km/h | 20331m | 3.8m/s | -49.2°C | 0.6% | 54.9hPa | 2.5V | 18:12:15 | 02:14:44 | 00:00:00 | |
| DL1XH-west | 2026-08-31 13:05:17 | 56.71476 | 3.72188 | 355° | 22km/h | 20287m | 4.2m/s | -49.4°C | 0.8% | 55.2hPa | 2.6V | 18:12:15 | 02:14:33 | 00:00:00 | |
| DL1XH-west | 2026-08-31 13:05:07 | 56.71434 | 3.72206 | 331° | 15km/h | 20247m | 3.5m/s | -49.4°C | 0.9% | 55.6hPa | 2.6V | 18:12:15 | 02:14:23 | 00:00:00 | |
| DJ2DS-15 | 2026-08-31 13:05:04 | 56.71424 | 3.72214 | 343° | 9km/h | 20234m | 4.5m/s | -49.4°C | 3.9% | 55.7hPa | 2.5V | 00:00:00 | 02:14:20 | 00:00:00 | |
| DM0DOS-11 | 2026-08-31 13:05:03 | 56.71414 | 3.72221 | 335° | 11km/h | 20222m | 3.8m/s | -49.3°C | 3.8% | 55.8hPa | 2.5V | 08:30:00 | 02:14:17 | 00:00:00 | |
| DL1XH-west | 2026-08-31 13:04:57 | 56.71409 | 3.72227 | 310° | 5km/h | 20205m | 4.7m/s | -49.3°C | 0.7% | 56hPa | 2.5V | 18:12:15 | 02:14:13 | 00:00:00 | |
| DM0DOS-11 | 2026-08-31 13:04:56 | 56.71398 | 3.72238 | 343° | 11km/h | 20179m | 4m/s | -49°C | 3.7% | 56.2hPa | 2.5V | 08:30:00 | 02:14:07 | 00:00:00 | |
| DL1XH-west | 2026-08-31 13:04:47 | 56.71390 | 3.72236 | 47° | 7km/h | 20163m | 3.3m/s | -49°C | 0.7% | 56.3hPa | 2.6V | 18:12:15 | 02:14:03 | 00:00:00 | |
| DL1XH-west | 2026-08-31 13:04:36 | 56.71371 | 3.72227 | 14° | 11km/h | 20116m | 4.8m/s | -48.9°C | 0.7% | 56.7hPa | 2.6V | 18:12:15 | 02:13:52 | 00:00:00 | |
| DM0DOS-11 | 2026-08-31 13:04:32 | 56.71363 | 3.72214 | 45° | 9km/h | 20095m | 3.9m/s | -48.7°C | 3.7% | 56.9hPa | 2.6V | 08:30:00 | 02:13:47 | 00:00:00 | |
| DM0DOS-11 | 2026-08-31 13:04:26 | 56.71349 | 3.72161 | 59° | 13km/h | 20050m | 5m/s | -48.4°C | 3.6% | 57.3hPa | 2.5V | 08:30:00 | 02:13:37 | 00:00:00 | |
| DL1XH-west | 2026-08-31 13:04:25 | 56.71355 | 3.72184 | 63° | 13km/h | 20069m | 3.9m/s | -48.6°C | 0.7% | 57.1hPa | 2.5V | 18:12:15 | 02:13:41 | 00:00:00 | |
| DL1XH-west | 2026-08-31 13:04:14 | 56.71339 | 3.72115 | 71° | 18km/h | 20019m | 3.9m/s | -48.3°C | 0.5% | 57.6hPa | 2.5V | 18:12:15 | 02:13:30 | 00:00:00 | |
| DM0DOS-11 | 2026-08-31 13:04:10 | 56.71329 | 3.72056 | 79° | 18km/h | 19984m | 3.6m/s | -48.4°C | 3.7% | 57.9hPa | 2.6V | 08:30:00 | 02:13:22 | 00:00:00 | |
| DL1XH-west | 2026-08-31 13:04:03 | 56.71326 | 3.72032 | 74° | 16km/h | 19971m | 3.7m/s | -48.5°C | 0.6% | 58hPa | 2.5V | 18:12:15 | 02:13:19 | 00:00:00 | |
| DL1XH-west | 2026-08-31 13:03:52 | 56.71311 | 3.71917 | 75° | 26km/h | 19924m | 4.5m/s | -48.6°C | 0.5% | 58.4hPa | 2.6V | 18:12:15 | 02:13:08 | 00:00:00 | |
| DM0DOS-11 | 2026-08-31 13:03:48 | 56.71290 | 3.71807 | 62° | 37km/h | 19885m | 3.8m/s | -48.5°C | 3.7% | 58.8hPa | 2.6V | 08:30:00 | 02:12:59 | 00:00:00 | |
| DL1XH-west | 2026-08-31 13:03:42 | 56.71286 | 3.71792 | 62° | 38km/h | 19881m | 4.9m/s | -48.5°C | 0.5% | 58.8hPa | 2.6V | 18:12:15 | 02:12:58 | 00:00:00 | |
| DM0DOS-11 | 2026-08-31 13:03:37 | 56.71250 | 3.71669 | 57° | 37km/h | 19841m | 4.7m/s | -48.7°C | 3.6% | 59.1hPa | 2.5V | 08:30:00 | 02:12:49 | 00:00:00 | |
| DL1XH-west | 2026-08-31 13:03:32 | 56.71245 | 3.71655 | 55° | 37km/h | 19836m | 4.3m/s | -48.7°C | 0.6% | 59.2hPa | 2.5V | 18:12:15 | 02:12:48 | 00:00:00 | |
| DM0DOS-11 | 2026-08-31 13:03:26 | 56.71196 | 3.71521 | 55° | 38km/h | 19797m | 3.7m/s | -48.8°C | 3.6% | 59.6hPa | 2.6V | 08:30:00 | 02:12:39 | 00:00:00 | |
| DL1XH-west | 2026-08-31 13:03:22 | 56.71190 | 3.71507 | 53° | 40km/h | 19793m | 4.4m/s | -48.9°C | 0.5% | 59.6hPa | 2.5V | 18:12:15 | 02:12:38 | 00:00:00 | |
| DM0DOS-11 | 2026-08-31 13:03:13 | 56.71102 | 3.71329 | 44° | 46km/h | 19739m | 4.5m/s | -49.1°C | 3.7% | 60.1hPa | 2.5V | 08:30:00 | 02:12:26 | 00:00:00 | |
| DL1XH-west | 2026-08-31 13:03:11 | 56.71110 | 3.71343 | 47° | 42km/h | 19744m | 4.8m/s | -49.1°C | 0.6% | 60hPa | 2.5V | 18:12:15 | 02:12:27 | 00:00:00 | |
| DL1XH-west | 2026-08-31 13:03:01 | 56.71025 | 3.71194 | 45° | 44km/h | 19698m | 4.5m/s | -49.2°C | 0.7% | 60.5hPa | 2.6V | 18:12:15 | 02:12:17 | 00:00:00 | |
| DM0DOS-11 | 2026-08-31 13:02:58 | 56.70959 | 3.71079 | 41° | 46km/h | 19662m | 3.9m/s | -49.1°C | 3.7% | 60.8hPa | 2.5V | 08:30:00 | 02:12:09 | 00:00:00 | |
| DL1XH-west | 2026-08-31 13:02:50 | 56.70934 | 3.71040 | 42° | 40km/h | 19650m | 3.8m/s | -49°C | 0.7% | 60.9hPa | 2.6V | 18:12:15 | 02:12:06 | 00:00:00 | |
| DL1XH-west | 2026-08-31 13:02:40 | 56.70858 | 3.70919 | 38° | 44km/h | 19608m | 3.2m/s | -48.9°C | 0.6% | 61.4hPa | 2.5V | 18:12:15 | 02:11:56 | 00:00:00 | |
| DL1XH-west | 2026-08-31 13:02:30 | 56.70774 | 3.70810 | 40° | 38km/h | 19567m | 3.5m/s | -48.9°C | 0.6% | 61.7hPa | 2.6V | 18:12:15 | 02:11:46 | 00:00:00 | |
| DM0DOS-11 | 2026-08-31 13:02:28 | 56.70722 | 3.70729 | 41° | 37km/h | 19536m | 4.6m/s | -49.3°C | 3.7% | 62hPa | 2.5V | 08:30:00 | 02:11:39 | 00:00:00 | |
| DL1XH-west | 2026-08-31 13:02:19 | 56.70694 | 3.70684 | 41° | 33km/h | 19518m | 4.2m/s | -49.3°C | 0.7% | 62.2hPa | 2.6V | 18:12:15 | 02:11:35 | 00:00:00 | |
| DM0DOS-11 | 2026-08-31 13:02:14 | 56.70619 | 3.70548 | 43° | 42km/h | 19470m | 3.9m/s | -49.2°C | 3.8% | 62.6hPa | 2.6V | 08:30:00 | 02:11:24 | 00:00:00 | |
| DL1XH-west | 2026-08-31 13:02:09 | 56.70627 | 3.70562 | 45° | 44km/h | 19475m | 4.7m/s | -49.2°C | 0.7% | 62.6hPa | 2.6V | 18:12:15 | 02:11:25 | 00:00:00 | |
| DJ2DS-15 | 2026-08-31 13:02:04 | 56.70587 | 3.70497 | 40° | 44km/h | 19454m | 4.7m/s | -49.3°C | 3.7% | 62.7hPa | 2.6V | 00:00:00 | 02:11:20 | 00:00:00 | |
| DM0DOS-11 | 2026-08-31 13:02:03 | 56.70539 | 3.70424 | 40° | 46km/h | 19429m | 4.4m/s | -49.2°C | 3.7% | 63hPa | 2.6V | 08:30:00 | 02:11:14 | 00:00:00 | |
| DL1XH-west | 2026-08-31 13:01:59 | 56.70548 | 3.70438 | 40° | 46km/h | 19434m | 3.8m/s | -49.2°C | 0.7% | 63hPa | 2.5V | 18:12:15 | 02:11:15 | 00:00:00 | |
| DL1XH-west | 2026-08-31 13:01:49 | 56.70452 | 3.70284 | 41° | 46km/h | 19390m | 3.7m/s | -49°C | 0.6% | 63.4hPa | 2.5V | 18:12:15 | 02:11:04 | 00:00:00 | |
| DJ2DS-15 | 2026-08-31 13:01:44 | 56.70417 | 3.70230 | 40° | 40km/h | 19373m | 4.1m/s | -48.9°C | 3.8% | 63.5hPa | 2.5V | 00:00:00 | 02:11:00 | 00:00:00 | |
| DM0DOS-11 | 2026-08-31 13:01:43 | 56.70392 | 3.70190 | 42° | 42km/h | 19360m | 3.6m/s | -49°C | 3.7% | 63.7hPa | 2.5V | 08:30:00 | 02:10:57 | 00:00:00 | |
| DL1XH-west | 2026-08-31 13:01:38 | 56.70361 | 3.70142 | 41° | 40km/h | 19344m | 4.2m/s | -49°C | 0.7% | 63.8hPa | 2.5V | 18:12:15 | 02:10:53 | 00:00:00 | |
| DL1XH-west | 2026-08-31 13:01:27 | 56.70284 | 3.70022 | 37° | 42km/h | 19303m | 3.4m/s | -48.9°C | 0.6% | 64.2hPa | 2.6V | 18:12:15 | 02:10:43 | 00:00:00 | |
| DJ2DS-15 | 2026-08-31 13:01:24 | 56.70261 | 3.69990 | 36° | 31km/h | 19291m | 3.3m/s | -48.8°C | 3.6% | 64.3hPa | 2.5V | 00:00:00 | 02:10:40 | 00:00:00 | |
| DM0DOS-11 | 2026-08-31 13:01:23 | 56.70213 | 3.69929 | 38° | 33km/h | 19261m | 4.5m/s | -48.7°C | 3.7% | 64.6hPa | 2.5V | 08:30:00 | 02:10:33 | 00:00:00 | |
| DL1XH-west | 2026-08-31 13:01:17 | 56.70206 | 3.69920 | 39° | 33km/h | 19257m | 3.3m/s | -48.7°C | 0.7% | 64.7hPa | 2.6V | 18:12:15 | 02:10:32 | 00:00:00 | |
| DM0DOS-11 | 2026-08-31 13:01:12 | 56.70156 | 3.69848 | 39° | 27km/h | 19224m | 4.2m/s | -48.7°C | 3.6% | 65hPa | 2.5V | 08:30:00 | 02:10:24 | 00:00:00 | |
| DL1XH-west | 2026-08-31 13:01:06 | 56.70146 | 3.69831 | 44° | 26km/h | 19217m | 3.4m/s | -48.8°C | 0.7% | 65hPa | 2.5V | 18:12:15 | 02:10:22 | 00:00:00 | |
| DJ2DS-15 | 2026-08-31 13:01:04 | 56.70136 | 3.69815 | 42° | 29km/h | 19208m | 3.2m/s | -48.8°C | 3.7% | 65.1hPa | 2.6V | 00:00:00 | 02:10:20 | 00:00:00 | |
| DM0DOS-11 | 2026-08-31 13:01:02 | 56.70106 | 3.69760 | 46° | 31km/h | 19184m | 4m/s | -48.9°C | 3.8% | 65.4hPa | 2.6V | 08:30:00 | 02:10:14 | 00:00:00 | |
| DL1XH-west | 2026-08-31 13:00:56 | 56.70094 | 3.69730 | 59° | 26km/h | 19171m | 3.6m/s | -48.9°C | 0.7% | 65.5hPa | 2.5V | 18:12:15 | 02:10:11 | 00:00:00 | |
| DM0DOS-11 | 2026-08-31 13:00:52 | 56.70071 | 3.69656 | 60° | 29km/h | 19143m | 4.1m/s | -48.8°C | 3.7% | 65.8hPa | 2.5V | 08:30:00 | 02:10:04 | 00:00:00 | |
| DL1XH-west | 2026-08-31 13:00:44 | 56.70056 | 3.69604 | 66° | 33km/h | 19127m | 2.8m/s | -48.7°C | 0.7% | 66hPa | 2.5V | 18:12:15 | 02:10:00 | 00:00:00 | |
| DJ2DS-15 | 2026-08-31 13:00:44 | 56.70056 | 3.69604 | 66° | 31km/h | 19127m | 2.7m/s | -48.7°C | 3.7% | 65.9hPa | 2.5V | 00:00:00 | 02:10:00 | 00:00:00 | |
| DM0DOS-11 | 2026-08-31 13:00:42 | 56.70037 | 3.69529 | 70° | 27km/h | 19103m | 3.5m/s | -48.7°C | 3.6% | 66.2hPa | 2.5V | 08:30:00 | 02:09:54 | 00:00:00 | |
| DL1XH-west | 2026-08-31 13:00:34 | 56.70019 | 3.69470 | 62° | 31km/h | 19083m | 4m/s | -48.7°C | 0.7% | 66.4hPa | 2.6V | 18:12:15 | 02:09:49 | 00:00:00 | |
| DL1XH-west | 2026-08-31 13:00:23 | 56.69979 | 3.69345 | 57° | 27km/h | 19042m | 4.5m/s | -48.5°C | 0.7% | 66.8hPa | 2.6V | 18:12:15 | 02:09:39 | 00:00:00 | |
| DM0DOS-11 | 2026-08-31 13:00:22 | 56.69956 | 3.69293 | 50° | 31km/h | 19022m | 4.3m/s | -48.5°C | 3.6% | 67hPa | 2.6V | 08:30:00 | 02:09:34 | 00:00:00 | |
| DL1XH-west | 2026-08-31 13:00:13 | 56.69928 | 3.69225 | 57° | 33km/h | 18997m | 4.9m/s | -48.4°C | 0.8% | 67.3hPa | 2.6V | 18:12:15 | 02:09:28 | 00:00:00 | |
| DM0DOS-11 | 2026-08-31 13:00:11 | 56.69911 | 3.69174 | 49° | 33km/h | 18981m | 3.4m/s | -48.5°C | 3.8% | 67.5hPa | 2.5V | 08:30:00 | 02:09:24 | 00:00:00 | |
| DL1XH-west | 2026-08-31 13:00:02 | 56.69875 | 3.69103 | 49° | 31km/h | 18952m | 4.1m/s | -48.4°C | 0.7% | 67.8hPa | 2.5V | 18:12:15 | 02:09:17 | 00:00:00 | |
| DM0DOS-11 | 2026-08-31 12:59:59 | 56.69861 | 3.69069 | 51° | 33km/h | 18940m | 4.3m/s | -48.4°C | 3.7% | 67.9hPa | 2.6V | 08:30:00 | 02:09:14 | 00:00:00 | |
| DM0DOS-11 | 2026-08-31 12:59:53 | 56.69804 | 3.68953 | 47° | 33km/h | 18898m | 4m/s | -48.3°C | 3.5% | 68.3hPa | 2.6V | 08:30:00 | 02:09:04 | 00:00:00 | |
| DL1XH-west | 2026-08-31 12:59:50 | 56.69815 | 3.68975 | 45° | 35km/h | 18906m | 4.5m/s | -48.4°C | 0.5% | 68.2hPa | 2.5V | 18:12:15 | 02:09:06 | 00:00:00 | |
| DJ2DS-15 | 2026-08-31 12:59:44 | 56.69780 | 3.68907 | 50° | 42km/h | 18881m | 4.1m/s | -48.3°C | 3.6% | 68.4hPa | 2.6V | 00:00:00 | 02:09:00 | 00:00:00 | |
| DM0DOS-11 | 2026-08-31 12:59:43 | 56.69742 | 3.68828 | 49° | 38km/h | 18857m | 3.6m/s | -48.3°C | 3.5% | 68.7hPa | 2.6V | 08:30:00 | 02:08:54 | 00:00:00 | |
| DL1XH-west | 2026-08-31 12:59:40 | 56.69755 | 3.68855 | 47° | 40km/h | 18865m | 3.5m/s | -48.3°C | 0.6% | 68.6hPa | 2.5V | 18:12:15 | 02:08:56 | 00:00:00 | |
| DM0DOS-11 | 2026-08-31 12:59:33 | 56.69666 | 3.68699 | 43° | 42km/h | 18815m | 4.5m/s | -48.6°C | 3.7% | 69.2hPa | 2.5V | 08:30:00 | 02:08:44 | 00:00:00 | |
| DL1XH-west | 2026-08-31 12:59:30 | 56.69674 | 3.68712 | 41° | 44km/h | 18819m | 3.9m/s | -48.7°C | 0.6% | 69.2hPa | 2.5V | 18:12:15 | 02:08:45 | 00:00:00 | |
| DJ2DS-15 | 2026-08-31 12:59:24 | 56.69634 | 3.68638 | 47° | 46km/h | 18798m | 3.9m/s | -48.5°C | 3.7% | 69.3hPa | 2.6V | 00:00:00 | 02:08:40 | 08:30:00 | |
| DM0DOS-11 | 2026-08-31 12:59:23 | 56.69583 | 3.68541 | 41° | 47km/h | 18773m | 3.4m/s | -48.5°C | 3.7% | 69.7hPa | 2.6V | 08:30:00 | 02:08:34 | 00:00:00 | |
| DL1XH-west | 2026-08-31 12:59:19 | 56.69583 | 3.68541 | 41° | 47km/h | 18773m | 3.4m/s | -48.5°C | 0.6% | 69.7hPa | 2.6V | 18:12:15 | 02:08:34 | 00:00:00 | |
| DM0DOS-11 | 2026-08-31 12:59:08 | 56.69490 | 3.68391 | 42° | 46km/h | 18727m | 4.7m/s | -48.4°C | 3.6% | 70.1hPa | 2.6V | 08:30:00 | 02:08:23 | 00:00:00 | |
| DL1XH-west | 2026-08-31 12:59:07 | 56.69490 | 3.68391 | 43° | 46km/h | 18727m | 4.7m/s | -48.4°C | 0.7% | 70.1hPa | 2.6V | 18:12:15 | 02:08:23 | 00:00:00 | |
| DJ2DS-15 | 2026-08-31 12:59:04 | 56.69464 | 3.68350 | 41° | 40km/h | 18714m | 4.3m/s | -48.4°C | 3.7% | 70.2hPa | 2.6V | 00:00:00 | 02:08:20 | 00:00:00 | |
| DM0DOS-11 | 2026-08-31 12:58:58 | 56.69409 | 3.68267 | 39° | 40km/h | 18683m | 4.6m/s | -48.2°C | 3.5% | 70.6hPa | 2.6V | 08:30:00 | 02:08:13 | 00:00:00 | |
| DL1XH-west | 2026-08-31 12:58:56 | 56.69401 | 3.68255 | 41° | 42km/h | 18679m | 3.9m/s | -48.1°C | 0.6% | 70.6hPa | 2.6V | 18:12:15 | 02:08:12 | 00:00:00 | |
| DJ2DS-15 | 2026-08-31 12:58:53 | 56.69378 | 3.68219 | 40° | 37km/h | 18666m | 3.8m/s | -48.1°C | 1.2% | 70.8hPa | 2.6V | 00:00:00 | 00:00:00 | 00:00:00 | |
| DM0DOS-11 | 2026-08-31 12:58:48 | 56.69329 | 3.68159 | 28° | 38km/h | 18640m | 4.5m/s | -48°C | 3.4% | 71hPa | 2.6V | 08:30:00 | 02:08:03 | 00:00:00 | |
| DL1XH-west | 2026-08-31 12:58:46 | 56.69312 | 3.68141 | 33° | 38km/h | 18632m | 3.6m/s | -48°C | 0.6% | 71.1hPa | 2.6V | 18:12:15 | 02:08:01 | 00:00:00 | |
| DJ2DS-15 | 2026-08-31 12:58:44 | 56.69305 | 3.68132 | 34° | 38km/h | 18628m | 4.7m/s | -48.1°C | 3.6% | 71.1hPa | 2.5V | 00:00:00 | 02:08:00 | 00:00:00 | |
| DM0DOS-11 | 2026-08-31 12:58:38 | 56.69249 | 3.68066 | 26° | 38km/h | 18600m | 3.9m/s | -48.2°C | 3.6% | 71.5hPa | 2.5V | 08:30:00 | 02:07:53 | 00:00:00 | |
| DL1XH-west | 2026-08-31 12:58:36 | 56.69232 | 3.68051 | 26° | 38km/h | 18592m | 4.6m/s | -48.2°C | 0.6% | 71.6hPa | 2.6V | 18:12:15 | 02:07:51 | 00:00:00 | |
| DM0DOS-11 | 2026-08-31 12:58:28 | 56.69165 | 3.67988 | 22° | 37km/h | 18559m | 4.7m/s | -48.4°C | 3.7% | 72hPa | 2.6V | 08:30:00 | 02:07:43 | 00:00:00 | |
| DL1XH-west | 2026-08-31 12:58:25 | 56.69148 | 3.67977 | 17° | 37km/h | 18551m | 3.8m/s | -48.4°C | 0.5% | 72hPa | 2.5V | 18:12:15 | 02:07:41 | 00:00:00 | |
| DJ2DS-15 | 2026-08-31 12:58:24 | 56.69139 | 3.67972 | 19° | 31km/h | 18547m | 4.4m/s | -48.3°C | 3.6% | 72.1hPa | 2.6V | 00:00:00 | 02:07:40 | 00:00:00 | |
| DM0DOS-11 | 2026-08-31 12:58:18 | 56.69084 | 3.67933 | 26° | 31km/h | 18518m | 3.9m/s | -48.3°C | 3.6% | 72.4hPa | 2.6V | 08:30:00 | 02:07:33 | 00:00:00 | |
| DL1XH-west | 2026-08-31 12:58:15 | 56.69070 | 3.67921 | 25° | 29km/h | 18509m | 3.9m/s | -48.3°C | 0.7% | 72.5hPa | 2.5V | 18:12:15 | 02:07:31 | 00:00:00 | |
| DM0DOS-11 | 2026-08-31 12:58:08 | 56.69006 | 3.67871 | 32° | 29km/h | 18472m | 3.5m/s | -48.2°C | 3.6% | 72.9hPa | 2.6V | 08:30:00 | 02:07:22 | 00:00:00 | |
| DL1XH-west | 2026-08-31 12:58:05 | 56.69000 | 3.67864 | 35° | 27km/h | 18468m | 4.4m/s | -48.3°C | 0.7% | 72.9hPa | 2.6V | 18:12:15 | 02:07:21 | 00:00:00 | |
| DL1XH-west | 2026-08-31 12:57:54 | 56.68939 | 3.67781 | 41° | 29km/h | 18424m | 4.1m/s | -48.1°C | 0.6% | 73.5hPa | 2.6V | 18:12:15 | 02:07:10 | 00:00:00 | |
| DL1XH-west | 2026-08-31 12:57:44 | 56.68888 | 3.67697 | 45° | 26km/h | 18377m | 4.2m/s | -48.1°C | 0.6% | 73.9hPa | 2.6V | 18:12:15 | 02:06:59 | 00:00:00 | |
| DJ2DS-15 | 2026-08-31 12:57:44 | 56.68892 | 3.67705 | 46° | 29km/h | 18381m | 3.6m/s | -48.0°C | 3.6% | 73.9hPa | 2.5V | 00:00:00 | 02:07:00 | 00:00:00 | |
| DM0DOS-11 | 2026-08-31 12:57:38 | 56.68851 | 3.67611 | 58° | 31km/h | 18340m | 4.3m/s | -48.3°C | 3.6% | 74.4hPa | 2.5V | 08:30:00 | 02:06:50 | 00:00:00 | |
| DL1XH-west | 2026-08-31 12:57:33 | 56.68847 | 3.67598 | 60° | 31km/h | 18336m | 4.1m/s | -48.3°C | 0.6% | 74.4hPa | 2.6V | 18:12:15 | 02:06:49 | 00:00:00 | |
| DL1XH-west | 2026-08-31 12:57:22 | 56.68802 | 3.67452 | 64° | 38km/h | 18292m | 4m/s | -48.3°C | 0.6% | 74.9hPa | 2.5V | 18:12:15 | 02:06:38 | 00:00:00 | |
| DM0DOS-11 | 2026-08-31 12:57:22 | 56.68798 | 3.67437 | 63° | 37km/h | 18288m | 4m/s | -48.2°C | 3.5% | 75hPa | 2.5V | 08:30:00 | 02:06:37 | 00:00:00 | |
| DL1XH-west | 2026-08-31 12:57:12 | 56.68760 | 3.67302 | 69° | 35km/h | 18248m | 3.8m/s | -48.4°C | 0.5% | 75.4hPa | 2.5V | 18:12:15 | 02:06:27 | 00:00:00 | |
| DL1XH-west | 2026-08-31 12:57:01 | 56.68733 | 3.67162 | 67° | 35km/h | 18208m | 3.2m/s | -48.4°C | 0.5% | 75.9hPa | 2.5V | 18:12:15 | 02:06:17 | 00:00:00 | |
| DL1XH-west | 2026-08-31 12:56:51 | 56.68690 | 3.67018 | 61° | 31km/h | 18166m | 3.8m/s | -48.5°C | 0.6% | 76.4hPa | 2.5V | 18:12:15 | 02:06:06 | 00:00:00 | |
| DL1XH-west | 2026-08-31 12:56:40 | 56.68661 | 3.66881 | 71° | 33km/h | 18127m | 3.1m/s | -48.8°C | 0.6% | 76.9hPa | 2.6V | 18:12:15 | 02:05:56 | 00:00:00 | |
| DL1XH-west | 2026-08-31 12:56:30 | 56.68627 | 3.66741 | 64° | 37km/h | 18089m | 3.7m/s | -48.9°C | 0.7% | 77.3hPa | 2.5V | 18:12:15 | 02:05:46 | 00:00:00 | |
| DL1XH-west | 2026-08-31 12:56:19 | 56.68588 | 3.66588 | 59° | 33km/h | 18047m | 4.1m/s | -49.4°C | 0.6% | 77.8hPa | 2.5V | 18:12:15 | 02:05:35 | 00:00:00 | |
| DL1XH-west | 2026-08-31 12:56:08 | 56.68549 | 3.66448 | 70° | 29km/h | 18005m | 4.3m/s | -49.8°C | 0.8% | 78.3hPa | 2.5V | 18:12:15 | 02:05:24 | 00:00:00 | |
| DL1XH-west | 2026-08-31 12:55:57 | 56.68505 | 3.66297 | 58° | 33km/h | 17964m | 3.9m/s | -49.8°C | 0.7% | 78.8hPa | 2.5V | 18:12:15 | 02:05:13 | 00:00:00 | |
| DL1XH-west | 2026-08-31 12:55:46 | 56.68466 | 3.66169 | 63° | 31km/h | 17922m | 4.3m/s | -49.8°C | 0.7% | 79.3hPa | 2.5V | 18:12:15 | 02:05:02 | 00:00:00 | |
| DL1XH-west | 2026-08-31 12:55:36 | 56.68443 | 3.66046 | 76° | 24km/h | 17885m | 3.5m/s | -49.7°C | 0.7% | 79.8hPa | 2.6V | 18:12:15 | 02:04:52 | 00:00:00 | |
| DL1XH-west | 2026-08-31 12:55:25 | 56.68420 | 3.65909 | 71° | 29km/h | 17843m | 3.4m/s | -49.6°C | 0.8% | 80.3hPa | 2.6V | 18:12:15 | 02:04:41 | 00:00:00 | |
| DJ2DS-15 | 2026-08-31 12:55:24 | 56.68417 | 3.65895 | 70° | 33km/h | 17839m | 4.5m/s | -49.6°C | 3.8% | 80.2hPa | 2.6V | 00:00:00 | 02:04:40 | 00:00:00 | |
| DM0DOS-11 | 2026-08-31 12:55:21 | 56.68403 | 3.65843 | 59° | 29km/h | 17823m | 4.1m/s | -49.7°C | 3.8% | 80.5hPa | 2.6V | 08:30:00 | 02:04:36 | 00:00:00 | |
| DL1XH-west | 2026-08-31 12:55:15 | 56.68378 | 3.65773 | 60° | 33km/h | 17800m | 3.6m/s | -49.9°C | 0.8% | 80.8hPa | 2.6V | 18:12:15 | 02:04:30 | 00:00:00 | |
| DM0DOS-11 | 2026-08-31 12:55:11 | 56.68349 | 3.65660 | 65° | 31km/h | 17769m | 3.8m/s | -49.8°C | 3.8% | 81.2hPa | 2.6V | 08:30:00 | 02:04:22 | 00:00:00 | |
| DL1XH-west | 2026-08-31 12:55:04 | 56.68340 | 3.65625 | 61° | 29km/h | 17757m | 4.2m/s | -49.8°C | 0.6% | 81.3hPa | 2.5V | 18:12:15 | 02:04:19 | 00:00:00 | |
| DJ2DS-15 | 2026-08-31 12:55:04 | 56.68343 | 3.65636 | 65° | 33km/h | 17761m | 3.2m/s | -49.7°C | 3.8% | 81.2hPa | 2.6V | 00:00:00 | 02:04:20 | 00:00:00 | |
| DM0DOS-11 | 2026-08-31 12:55:01 | 56.68312 | 3.65535 | 61° | 37km/h | 17730m | 3.5m/s | -49.8°C | 3.9% | 81.7hPa | 2.6V | 08:30:00 | 02:04:12 | 00:00:00 | |
| DL1XH-west | 2026-08-31 12:54:52 | 56.68295 | 3.65480 | 55° | 35km/h | 17715m | 4.2m/s | -49.7°C | 0.8% | 81.9hPa | 2.5V | 18:12:15 | 02:04:08 | 00:00:00 | |
| DM0DOS-11 | 2026-08-31 12:54:51 | 56.68265 | 3.65410 | 52° | 31km/h | 17691m | 3.8m/s | -49.5°C | 3.8% | 82.1hPa | 2.6V | 08:30:00 | 02:04:02 | 00:00:00 | |
| DL1XH-west | 2026-08-31 12:54:42 | 56.68247 | 3.65360 | 58° | 35km/h | 17675m | 4.2m/s | -49.6°C | 0.7% | 82.3hPa | 2.5V | 18:12:15 | 02:03:58 | 00:00:00 | |
| DM0DOS-11 | 2026-08-31 12:54:41 | 56.68213 | 3.65283 | 44° | 33km/h | 17652m | 4m/s | -49.5°C | 3.8% | 82.6hPa | 2.5V | 08:30:00 | 02:03:52 | 00:00:00 | |
| DL1XH-west | 2026-08-31 12:54:32 | 56.68189 | 3.65241 | 49° | 31km/h | 17636m | 3.2m/s | -49.4°C | 0.7% | 82.9hPa | 2.6V | 18:12:15 | 02:03:48 | 00:00:00 | |
| DL1XH-west | 2026-08-31 12:54:22 | 56.68124 | 3.65114 | 35° | 31km/h | 17592m | 3.5m/s | -49.3°C | 0.7% | 83.4hPa | 2.6V | 18:12:15 | 02:03:37 | 00:00:00 | |
| DM0DOS-11 | 2026-08-31 12:54:11 | 56.68026 | 3.64975 | 43° | 37km/h | 17530m | 3.5m/s | -48.7°C | 3.6% | 84.2hPa | 2.5V | 08:30:00 | 02:03:22 | 00:00:00 | |
| DL1XH-west | 2026-08-31 12:54:11 | 56.68054 | 3.65016 | 36° | 33km/h | 17547m | 3.8m/s | -48.9°C | 0.7% | 84hPa | 2.6V | 18:12:15 | 02:03:26 | 00:00:00 | |
| DJ2DS-15 | 2026-08-31 12:54:06 | 56.68020 | 3.64963 | 47° | 35km/h | 17526m | 4.4m/s | -48.7°C | 1.3% | 84.2hPa | 2.5V | 00:00:00 | 00:00:00 | 00:00:00 | |
| DJ2DS-15 | 2026-08-31 12:54:03 | 56.68008 | 3.64940 | 49° | 33km/h | 17519m | 3.2m/s | -48.7°C | 3.7% | 84.3hPa | 2.5V | 00:00:00 | 02:03:19 | 00:00:00 | |
| DM0DOS-11 | 2026-08-31 12:54:01 | 56.67957 | 3.64844 | 52° | 33km/h | 17481m | 3.7m/s | -48.5°C | 3.7% | 84.8hPa | 2.5V | 08:30:00 | 02:03:10 | 00:00:00 | |
| DL1XH-west | 2026-08-31 12:54:00 | 56.67990 | 3.64905 | 47° | 33km/h | 17506m | 3.4m/s | -48.7°C | 0.6% | 84.5hPa | 2.5V | 18:12:15 | 02:03:16 | 00:00:00 | |
| DL1XH-west | 2026-08-31 12:53:50 | 56.67931 | 3.64777 | 58° | 35km/h | 17460m | 3.8m/s | -48.5°C | 0.6% | 85.1hPa | 2.5V | 18:12:15 | 02:03:05 | 00:00:00 | |
| DM0DOS-11 | 2026-08-31 12:53:48 | 56.67916 | 3.64739 | 52° | 33km/h | 17448m | 3.7m/s | -48.4°C | 3.6% | 85.3hPa | 2.6V | 08:30:00 | 02:03:02 | 00:00:00 | |
| DL1XH-west | 2026-08-31 12:53:39 | 56.67884 | 3.64645 | 58° | 33km/h | 17416m | 3.4m/s | -48.4°C | 0.6% | 85.7hPa | 2.5V | 18:12:15 | 02:02:54 | 00:00:00 | |
| DM0DOS-11 | 2026-08-31 12:53:37 | 56.67867 | 3.64605 | 48° | 37km/h | 17403m | 3.8m/s | -48.4°C | 3.5% | 85.9hPa | 2.6V | 08:30:00 | 02:02:51 | 00:00:00 | |
| DM0DOS-11 | 2026-08-31 12:53:31 | 56.67812 | 3.64470 | 53° | 33km/h | 17358m | 4.1m/s | -48.3°C | 3.6% | 86.4hPa | 2.6V | 08:30:00 | 02:02:40 | 00:00:00 | |
| DL1XH-west | 2026-08-31 12:53:29 | 56.67835 | 3.64533 | 58° | 31km/h | 17378m | 4.1m/s | -48.3°C | 0.7% | 86.2hPa | 2.6V | 18:12:15 | 02:02:45 | 00:00:00 | |
| DJ2DS-15 | 2026-08-31 12:53:23 | 56.67806 | 3.64458 | 52° | 31km/h | 17355m | 3.8m/s | -48.2°C | 3.6% | 86.4hPa | 2.6V | 00:00:00 | 02:02:39 | 08:30:00 | |
| DM0DOS-11 | 2026-08-31 12:53:19 | 56.67765 | 3.64359 | 63° | 27km/h | 17318m | 4.2m/s | -48.2°C | 3.6% | 87hPa | 2.5V | 08:30:00 | 02:02:30 | 00:00:00 | |
| DL1XH-west | 2026-08-31 12:53:18 | 56.67780 | 3.64403 | 54° | 27km/h | 17334m | 3.6m/s | -48.2°C | 0.6% | 86.8hPa | 2.6V | 18:12:15 | 02:02:34 | 00:00:00 | |
| DL1XH-west | 2026-08-31 12:53:09 | 56.67741 | 3.64292 | 51° | 31km/h | 17293m | 3.7m/s | -48.3°C | 0.6% | 87.3hPa | 2.5V | 18:12:15 | 02:02:24 | 00:00:00 | |
| DM0DOS-11 | 2026-08-31 12:53:08 | 56.67722 | 3.64245 | 58° | 31km/h | 17277m | 4.6m/s | -48.4°C | 3.7% | 87.5hPa | 2.6V | 08:30:00 | 02:02:20 | 00:00:00 | |
| DL1XH-west | 2026-08-31 12:52:58 | 56.67700 | 3.64152 | 68° | 31km/h | 17249m | 3.4m/s | -48.5°C | 0.6% | 87.9hPa | 2.5V | 18:12:15 | 02:02:13 | 00:00:00 | |
| DM0DOS-11 | 2026-08-31 12:52:57 | 56.67684 | 3.64100 | 57° | 33km/h | 17233m | 4.4m/s | -48.5°C | 3.7% | 88.1hPa | 2.6V | 08:30:00 | 02:02:09 | 00:00:00 | |
| DL1XH-west | 2026-08-31 12:52:46 | 56.67654 | 3.64000 | 62° | 35km/h | 17206m | 3.2m/s | -48.4°C | 0.6% | 88.5hPa | 2.5V | 18:12:15 | 02:02:02 | 00:00:00 | |
| DM0DOS-11 | 2026-08-31 12:52:45 | 56.67638 | 3.63956 | 56° | 40km/h | 17194m | 3.7m/s | -48.3°C | 3.7% | 88.6hPa | 2.6V | 08:30:00 | 02:01:59 | 00:00:00 | |
| DL1XH-west | 2026-08-31 12:52:36 | 56.67597 | 3.63849 | 54° | 40km/h | 17166m | 3.3m/s | -48.2°C | 0.6% | 89hPa | 2.6V | 18:12:15 | 02:01:52 | 00:00:00 | |
| DM0DOS-11 | 2026-08-31 12:52:34 | 56.67579 | 3.63803 | 53° | 42km/h | 17155m | 3.6m/s | -48.1°C | 3.6% | 89.1hPa | 2.5V | 08:30:00 | 02:01:49 | 00:00:00 | |
| DM0DOS-11 | 2026-08-31 12:52:27 | 56.67511 | 3.63660 | 46° | 42km/h | 17115m | 3.5m/s | -48°C | 0% | 89.7hPa | 2.5V | 08:30:00 | 02:01:39 | 00:00:00 | |
| DL1XH-west | 2026-08-31 12:52:26 | 56.67525 | 3.63688 | 46° | 42km/h | 17123m | 3.3m/s | -48°C | 0.6% | 89.6hPa | 2.6V | 18:12:15 | 02:01:41 | 00:00:00 | |
| DJ2DS-15 | 2026-08-31 12:52:23 | 56.67510 | 3.63660 | 47° | 44km/h | 17115m | 3.4m/s | -48.0°C | 3.5% | 89.7hPa | 2.5V | 00:00:00 | 02:01:39 | 00:00:00 | |
| DM0DOS-11 | 2026-08-31 12:52:15 | 56.67435 | 3.63522 | 41° | 46km/h | 17076m | 3.4m/s | -48°C | 0% | 90.2hPa | 2.6V | 00:00:00 | 02:01:29 | 00:00:00 | |
| DL1XH-west | 2026-08-31 12:52:15 | 56.67451 | 3.63549 | 45° | 42km/h | 17085m | 3.2m/s | -48°C | 0.6% | 90.1hPa | 2.6V | 18:12:15 | 02:01:31 | 00:00:00 | |
| DL1XH-west | 2026-08-31 12:52:04 | 56.67359 | 3.63409 | 39° | 46km/h | 17042m | 4.2m/s | -48°C | 0.6% | 90.7hPa | 2.5V | 18:12:15 | 02:01:20 | 00:00:00 | |
| DM0DOS-11 | 2026-08-31 12:52:04 | 56.67350 | 3.63396 | 39° | 47km/h | 17038m | 3.4m/s | -48°C | 0% | 0hPa | 2.6V | 00:00:00 | 02:01:19 | 00:00:00 | |
| DJ2DS-15 | 2026-08-31 12:52:03 | 56.67350 | 3.63395 | 40° | 42km/h | 17039m | 3.3m/s | -48.0°C | 3.6% | 90.7hPa | 2.5V | 00:00:00 | 02:01:19 | 00:00:00 | |
| DM0DOS-11 | 2026-08-31 12:51:59 | 56.67261 | 3.63271 | 33° | 44km/h | 17001m | 3.1m/s | -47.9°C | 0% | 0hPa | 2.5V | 00:00:00 | 02:01:09 | 00:00:00 | |
| DL1XH-west | 2026-08-31 12:51:54 | 56.67270 | 3.63282 | 34° | 42km/h | 17005m | 3.1m/s | -47.9°C | 0.6% | 91.2hPa | 2.5V | 18:12:15 | 02:01:10 | 00:00:00 | |
| DM0DOS-11 | 2026-08-31 12:51:47 | 56.67175 | 3.63171 | 33° | 38km/h | 16964m | 4m/s | -47.7°C | 0% | 0hPa | 2.6V | 00:00:00 | 02:00:59 | 00:00:00 | |
| DL1XH-west | 2026-08-31 12:51:44 | 56.67183 | 3.63180 | 34° | 38km/h | 16968m | 3.4m/s | -47.8°C | 0.5% | 91.8hPa | 2.6V | 18:12:15 | 02:01:00 | 00:00:00 | |
| DL1XH-west | 2026-08-31 12:51:34 | 56.67091 | 3.63078 | 33° | 38km/h | 16927m | 3.2m/s | -48°C | 0.6% | 92.3hPa | 2.6V | 18:12:15 | 02:00:49 | 00:00:00 | |
| DM0DOS-11 | 2026-08-31 12:51:33 | 56.67075 | 3.63059 | 32° | 38km/h | 16919m | 3.6m/s | 0°C | 0% | 0hPa | 2.5V | 00:00:00 | 02:00:47 | 00:00:00 | |
| DM0DOS-11 | 2026-08-31 12:51:27 | 56.66994 | 3.62959 | 28° | 37km/h | 16877m | 3.3m/s | 0°C | 0% | 0hPa | 2.5V | 00:00:00 | 02:00:36 | 00:00:00 | |
| DL1XH-west | 2026-08-31 12:51:22 | 56.66994 | 3.62959 | 29° | 37km/h | 16877m | 3.3m/s | -47.9°C | 0.6% | 93hPa | 2.5V | 18:12:15 | 02:00:36 | 00:00:00 | |
| DL1XH-west | 2026-08-31 12:51:10 | 56.66913 | 3.62886 | 28° | 40km/h | 16841m | 3.7m/s | -47.9°C | 0.5% | 93.6hPa | 2.6V | 18:12:15 | 02:00:26 | 00:00:00 | |
| DM0DOS-11 | 2026-08-31 12:51:09 | 56.66879 | 3.62852 | 28° | 37km/h | 16825m | 3.9m/s | 0°C | 0% | 0hPa | 2.5V | 00:00:00 | 02:00:22 | 00:00:00 | |
| DL1XH-west | 2026-08-31 12:51:00 | 56.66824 | 3.62806 | 20° | 33km/h | 16798m | 3.1m/s | -47.7°C | 0.5% | 94.2hPa | 2.6V | 18:12:15 | 02:00:15 | 00:00:00 | |
| DM0DOS-11 | 2026-08-31 12:50:59 | 56.66801 | 3.62790 | 23° | 31km/h | 16787m | 3.5m/s | 0°C | 0% | 0hPa | 2.5V | 00:00:00 | 02:00:12 | 00:00:00 | |
| DM0DOS-11 | 2026-08-31 12:50:49 | 56.66732 | 3.62732 | 29° | 27km/h | 16748m | 4.2m/s | 0°C | 0% | 0hPa | 2.6V | 00:00:00 | 02:00:02 | 00:00:00 | |
| DL1XH-west | 2026-08-31 12:50:49 | 56.66752 | 3.62751 | 28° | 31km/h | 16760m | 4.1m/s | -47.5°C | 0.6% | 94.7hPa | 2.5V | 18:12:15 | 02:00:05 | 00:00:00 | |
| DL1XH-west | 2026-08-31 12:50:39 | 56.66688 | 3.62682 | 37° | 26km/h | 16717m | 4.6m/s | -47.2°C | 0.5% | 95.3hPa | 2.5V | 18:12:15 | 01:59:54 | 00:00:00 | |
| DM0DOS-11 | 2026-08-31 12:50:33 | 56.66653 | 3.62633 | 39° | 31km/h | 16694m | 4.2m/s | 0°C | 0% | 0hPa | 2.5V | 00:00:00 | 01:59:48 | 00:00:00 | |
| DL1XH-west | 2026-08-31 12:50:27 | 56.66626 | 3.62594 | 45° | 24km/h | 16675m | 2.9m/s | -47.2°C | 0.5% | 95.9hPa | 2.5V | 18:12:15 | 01:59:43 | 00:00:00 | |
| DM0DOS-11 | 2026-08-31 12:50:23 | 56.66584 | 3.62518 | 45° | 35km/h | 16643m | 3.8m/s | 0°C | 0% | 0hPa | 2.6V | 00:00:00 | 01:59:35 | 00:00:00 | |
| DL1XH-west | 2026-08-31 12:50:16 | 56.66558 | 3.62458 | 58° | 35km/h | 16623m | 4.3m/s | -47°C | 0.4% | 96.7hPa | 2.5V | 18:12:15 | 01:59:30 | 00:00:00 | |
| DM0DOS-11 | 2026-08-31 12:50:11 | 56.66529 | 3.62385 | 51° | 35km/h | 16600m | 4m/s | 0°C | 0% | 0hPa | 2.5V | 00:00:00 | 01:59:24 | 00:00:00 | |
| DL1XH-west | 2026-08-31 12:50:06 | 56.66499 | 3.62296 | 68° | 40km/h | 16577m | 4.6m/s | -47.2°C | 0.4% | 97.4hPa | 2.5V | 18:12:15 | 01:59:18 | 00:00:00 | |
| DL1XH-west | 2026-08-31 12:49:56 | 56.66473 | 3.62175 | 59° | 42km/h | 16551m | 3.6m/s | -47°C | 0.6% | 97.8hPa | 2.6V | 18:12:15 | 01:59:11 | 00:00:00 | |
| DL1XH-west | 2026-08-31 12:49:44 | 56.66407 | 3.61975 | 58° | 42km/h | 16505m | 3.6m/s | -47°C | 0.4% | 98.4hPa | 2.6V | 18:12:15 | 01:58:59 | 00:00:00 | |
| DL1XH-west | 2026-08-31 12:49:33 | 56.66345 | 3.61817 | 55° | 44km/h | 16468m | 4.2m/s | -47°C | 0.5% | 99hPa | 2.5V | 18:12:15 | 01:58:49 | 00:00:00 | |
| DL1XH-west | 2026-08-31 12:49:23 | 56.66260 | 3.61610 | 49° | 46km/h | 16423m | 3.6m/s | -47.1°C | 0.4% | 99.7hPa | 2.6V | 18:12:15 | 01:58:37 | 00:00:00 | |
| DL1XH-west | 2026-08-31 12:49:13 | 56.66174 | 3.61441 | 46° | 46km/h | 16381m | 3.9m/s | -47.1°C | 0.4% | 100.3hPa | 2.5V | 18:12:15 | 01:58:26 | 00:00:00 | |
| DL1XH-west | 2026-08-31 12:49:02 | 56.66095 | 3.61320 | 37° | 40km/h | 16347m | 2.9m/s | -47°C | 0.5% | 100.8hPa | 2.6V | 18:12:15 | 01:58:17 | 00:00:00 | |
| DL1XH-west | 2026-08-31 12:48:52 | 56.66025 | 3.61215 | 43° | 40km/h | 16315m | 3.1m/s | -46.8°C | 0.4% | 101.3hPa | 2.6V | 18:12:15 | 01:58:08 | 00:00:00 | |
| DL1XH-west | 2026-08-31 12:48:42 | 56.65939 | 3.61072 | 48° | 38km/h | 16272m | 4.2m/s | -46.9°C | 0.5% | 102hPa | 2.6V | 18:12:15 | 01:57:56 | 00:00:00 | |
| DL1XH-west | 2026-08-31 12:48:32 | 56.65887 | 3.60968 | 48° | 38km/h | 16241m | 3.2m/s | -47°C | 0.4% | 102.5hPa | 2.6V | 18:12:15 | 01:57:48 | 00:00:00 | |
| DL1XH-west | 2026-08-31 12:48:21 | 56.65806 | 3.60815 | 45° | 40km/h | 16199m | 3.2m/s | -47°C | 0.5% | 103.1hPa | 2.6V | 18:12:15 | 01:57:36 | 00:00:00 | |
| DL1XH-west | 2026-08-31 12:48:09 | 56.65719 | 3.60688 | 36° | 44km/h | 16158m | 4.2m/s | -46.8°C | 0.5% | 103.8hPa | 2.6V | 18:12:15 | 01:57:25 | 00:00:00 | |
| DL1XH-west | 2026-08-31 12:47:59 | 56.65635 | 3.60571 | 38° | 42km/h | 16121m | 4.4m/s | -46.7°C | 0.4% | 104.3hPa | 2.6V | 18:12:15 | 01:57:15 | 00:00:00 | |
| DL1XH-west | 2026-08-31 12:47:49 | 56.65548 | 3.60443 | 35° | 38km/h | 16082m | 3.3m/s | -46.7°C | 0.5% | 105hPa | 2.5V | 18:12:15 | 01:57:04 | 00:00:00 | |
| DL1XH-west | 2026-08-31 12:47:38 | 56.65472 | 3.60327 | 41° | 33km/h | 16043m | 3m/s | -46.7°C | 0.5% | 105.6hPa | 2.5V | 18:12:15 | 01:56:53 | 00:00:00 | |
| DL1XH-west | 2026-08-31 12:47:27 | 56.65400 | 3.60212 | 45° | 29km/h | 16003m | 3.1m/s | -47.1°C | 0.6% | 106.2hPa | 2.5V | 18:12:15 | 01:56:42 | 00:00:00 | |
| DL1XH-west | 2026-08-31 12:47:16 | 56.65337 | 3.60104 | 38° | 38km/h | 15966m | 3.2m/s | -47.2°C | 0.4% | 106.8hPa | 2.5V | 18:12:15 | 01:56:32 | 00:00:00 | |
| DL1XH-west | 2026-08-31 12:47:06 | 56.65266 | 3.59998 | 34° | 33km/h | 15931m | 3.5m/s | -47.2°C | 0.5% | 107.4hPa | 2.6V | 18:12:15 | 01:56:22 | 00:00:00 | |
| DL1XH-west | 2026-08-31 12:46:56 | 56.65202 | 3.59914 | 35° | 31km/h | 15895m | 2.6m/s | -47.1°C | 0.5% | 108hPa | 2.6V | 18:12:15 | 01:56:12 | 00:00:00 | |
| DJ2DS-15 | 2026-08-31 12:46:52 | 56.65177 | 3.59876 | 42° | 31km/h | 15881m | 3.6m/s | -47.1°C | 1.2% | 108.2hPa | 2.6V | 00:00:00 | 00:00:00 | 00:00:00 | |
| DL1XH-west | 2026-08-31 12:46:45 | 56.65122 | 3.59787 | 43° | 38km/h | 15850m | 3.1m/s | -47.2°C | 0.5% | 108.8hPa | 2.6V | 18:12:15 | 01:55:59 | 00:00:00 | |
| DL1XH-west | 2026-08-31 12:46:33 | 56.65054 | 3.59669 | 43° | 38km/h | 15815m | 3.7m/s | -47.3°C | 0.6% | 109.3hPa | 2.6V | 18:12:15 | 01:55:49 | 00:00:00 | |
| DL1XH-west | 2026-08-31 12:46:23 | 56.64978 | 3.59552 | 40° | 40km/h | 15780m | 3.7m/s | -47.1°C | 0.7% | 109.9hPa | 2.5V | 18:12:15 | 01:55:39 | 00:00:00 | |
| DL1XH-west | 2026-08-31 12:46:13 | 56.64897 | 3.59433 | 37° | 35km/h | 15741m | 3.1m/s | -46.7°C | 0.4% | 110.5hPa | 2.5V | 18:12:15 | 01:55:28 | 00:00:00 | |
| DL1XH-west | 2026-08-31 12:46:02 | 56.64830 | 3.59339 | 41° | 33km/h | 15706m | 2.8m/s | -46.6°C | 0.5% | 111.2hPa | 2.5V | 18:12:15 | 01:55:18 | 00:00:00 | |
| DL1XH-west | 2026-08-31 12:45:51 | 56.64757 | 3.59238 | 37° | 33km/h | 15667m | 3.9m/s | -46.4°C | 0.4% | 111.8hPa | 2.6V | 18:12:15 | 01:55:07 | 00:00:00 | |
| DL1XH-west | 2026-08-31 12:45:40 | 56.64695 | 3.59141 | 37° | 31km/h | 15629m | 3.4m/s | -46.2°C | 0.5% | 112.4hPa | 2.6V | 18:12:15 | 01:54:56 | 00:00:00 | |
| DL1XH-west | 2026-08-31 12:45:30 | 56.64642 | 3.59050 | 45° | 29km/h | 15596m | 3.1m/s | -46.2°C | 0.5% | 113hPa | 2.6V | 18:12:15 | 01:54:46 | 00:00:00 | |
| DL1XH-west | 2026-08-31 12:45:20 | 56.64590 | 3.58962 | 49° | 27km/h | 15557m | 3.2m/s | -46.2°C | 0.3% | 113.7hPa | 2.6V | 18:12:15 | 01:54:35 | 00:00:00 | |
| DL1XH-west | 2026-08-31 12:45:09 | 56.64543 | 3.58856 | 52° | 27km/h | 15522m | 2.8m/s | -46.5°C | 0.4% | 114.3hPa | 2.6V | 18:12:15 | 01:54:25 | 00:00:00 | |
| DL1XH-west | 2026-08-31 12:44:59 | 56.64488 | 3.58716 | 59° | 37km/h | 15485m | 3.5m/s | -46.7°C | 0.5% | 114.9hPa | 2.5V | 18:12:15 | 01:54:14 | 00:00:00 | |
| DL1XH-west | 2026-08-31 12:44:47 | 56.64432 | 3.58552 | 60° | 42km/h | 15446m | 3.3m/s | -46.9°C | 0.5% | 115.6hPa | 2.5V | 18:12:15 | 01:54:03 | 00:00:00 | |
| DL1XH-west | 2026-08-31 12:44:37 | 56.64375 | 3.58395 | 54° | 33km/h | 15407m | 3.9m/s | -47.2°C | 0.5% | 116.3hPa | 2.5V | 18:12:15 | 01:53:52 | 00:00:00 | |
| DL1XH-west | 2026-08-31 12:44:26 | 56.64319 | 3.58258 | 46° | 29km/h | 15369m | 3.7m/s | -47.1°C | 0.6% | 116.9hPa | 2.5V | 18:12:15 | 01:53:41 | 00:00:00 | |
| DL1XH-west | 2026-08-31 12:44:16 | 56.64266 | 3.58165 | 44° | 29km/h | 15335m | 3m/s | -47.2°C | 0.7% | 117.5hPa | 2.5V | 18:12:15 | 01:53:31 | 00:00:00 | |
| DL1XH-west | 2026-08-31 12:44:05 | 56.64213 | 3.58076 | 51° | 24km/h | 15295m | 4.3m/s | -47.3°C | 0.7% | 118.3hPa | 2.6V | 18:12:15 | 01:53:20 | 00:00:00 | |
| DL1XH-west | 2026-08-31 12:43:54 | 56.64166 | 3.57975 | 54° | 24km/h | 15251m | 4.1m/s | -47°C | 0.5% | 119.1hPa | 2.6V | 18:12:15 | 01:53:08 | 00:00:00 | |
| DL1XH-west | 2026-08-31 12:43:42 | 56.64125 | 3.57846 | 58° | 27km/h | 15212m | 3m/s | -47°C | 0.6% | 119.8hPa | 2.6V | 18:12:15 | 01:52:57 | 00:00:00 | |
| DL1XH-west | 2026-08-31 12:43:31 | 56.64086 | 3.57715 | 61° | 33km/h | 15174m | 3.3m/s | -47.2°C | 0.6% | 120.5hPa | 2.6V | 18:12:15 | 01:52:46 | 00:00:00 | |
| DL1XH-west | 2026-08-31 12:43:20 | 56.64058 | 3.57587 | 69° | 38km/h | 15137m | 3.4m/s | -47.2°C | 0.6% | 121.2hPa | 2.6V | 18:12:15 | 01:52:36 | 00:00:00 | |
| DL1XH-west | 2026-08-31 12:43:10 | 56.64029 | 3.57411 | 79° | 33km/h | 15096m | 3.7m/s | -47.7°C | 0.6% | 121.9hPa | 2.6V | 18:12:15 | 01:52:25 | 00:00:00 | |
| DL1XH-west | 2026-08-31 12:42:59 | 56.63987 | 3.57213 | 66° | 42km/h | 15057m | 3.8m/s | -47.5°C | 0.5% | 122.6hPa | 2.6V | 18:12:15 | 01:52:14 | 00:00:00 | |
| DL1XH-west | 2026-08-31 12:42:49 | 56.63947 | 3.57039 | 64° | 44km/h | 15022m | 3.7m/s | -47.6°C | 0.7% | 123.3hPa | 2.5V | 18:12:15 | 01:52:04 | 00:00:00 | |
| DL1XH-west | 2026-08-31 12:42:37 | 56.63895 | 3.56848 | 68° | 44km/h | 14983m | 3.5m/s | -47.8°C | 0.7% | 124hPa | 2.5V | 18:12:15 | 01:51:53 | 00:00:00 | |
| DL1XH-west | 2026-08-31 12:42:27 | 56.63833 | 3.56659 | 57° | 51km/h | 14945m | 3.8m/s | -47.6°C | 0.8% | 124.7hPa | 2.6V | 18:12:15 | 01:51:43 | 00:00:00 | |
| DL1XH-west | 2026-08-31 12:42:16 | 56.63764 | 3.56443 | 56° | 47km/h | 14904m | 2.8m/s | -47.7°C | 0.7% | 125.5hPa | 2.6V | 18:12:15 | 01:51:32 | 00:00:00 | |
| DL1XH-west | 2026-08-31 12:42:05 | 56.63702 | 3.56243 | 59° | 44km/h | 14864m | 3.9m/s | -47.4°C | 0.7% | 126.2hPa | 2.6V | 18:12:15 | 01:51:21 | 00:00:00 | |
| DL1XH-west | 2026-08-31 12:41:55 | 56.63657 | 3.56069 | 67° | 38km/h | 14828m | 2.8m/s | -47.5°C | 0.6% | 126.9hPa | 2.5V | 18:12:15 | 01:51:11 | 00:00:00 | |
| DL1XH-west | 2026-08-31 12:41:45 | 56.63608 | 3.55907 | 69° | 38km/h | 14793m | 2.5m/s | -47.7°C | 0.6% | 127.7hPa | 2.5V | 18:12:15 | 01:51:01 | 00:00:00 | |
| DL1XH-west | 2026-08-31 12:41:34 | 56.63552 | 3.55739 | 57° | 35km/h | 14754m | 2.9m/s | -47.7°C | 0.6% | 128.4hPa | 2.5V | 18:12:15 | 01:50:50 | 00:00:00 | |
| DL1XH-west | 2026-08-31 12:41:23 | 56.63501 | 3.55588 | 54° | 33km/h | 14714m | 3.2m/s | -47.9°C | 0.7% | 129.2hPa | 2.5V | 18:12:15 | 01:50:39 | 00:00:00 | |
| DL1XH-west | 2026-08-31 12:41:13 | 56.63457 | 3.55445 | 60° | 33km/h | 14674m | 3.3m/s | -47.7°C | 0.7% | 130hPa | 2.6V | 18:12:15 | 01:50:28 | 00:00:00 | |
| DL1XH-west | 2026-08-31 12:41:02 | 56.63414 | 3.55307 | 66° | 35km/h | 14638m | 4.4m/s | -47.6°C | 0.7% | 130.7hPa | 2.6V | 18:12:15 | 01:50:18 | 00:00:00 | |
| DL1XH-west | 2026-08-31 12:40:52 | 56.63361 | 3.55137 | 59° | 42km/h | 14599m | 3m/s | -47.5°C | 0.7% | 131.5hPa | 2.6V | 18:12:15 | 01:50:07 | 00:00:00 | |
| DJ2DS-15 | 2026-08-31 12:40:52 | 56.63361 | 3.55137 | 59° | 40km/h | 14599m | 3.0m/s | -47.5°C | 1.4% | 131.5hPa | 2.6V | 00:00:00 | 00:00:00 | 00:00:00 | |
| DL1XH-west | 2026-08-31 12:40:40 | 56.63302 | 3.54934 | 64° | 42km/h | 14556m | 4.2m/s | -47.5°C | 0.7% | 132.3hPa | 2.6V | 18:12:15 | 01:49:55 | 00:00:00 | |
| DL1XH-west | 2026-08-31 12:40:29 | 56.63254 | 3.54751 | 71° | 37km/h | 14516m | 3.4m/s | -47.5°C | 0.7% | 133.1hPa | 2.6V | 18:12:15 | 01:49:44 | 00:00:00 | |
| DL1XH-west | 2026-08-31 12:40:18 | 56.63207 | 3.54559 | 59° | 44km/h | 14472m | 3.3m/s | -47.3°C | 0.6% | 134hPa | 2.6V | 18:12:15 | 01:49:32 | 00:00:00 | |
| DL1XH-west | 2026-08-31 12:40:07 | 56.63148 | 3.54369 | 56° | 46km/h | 14429m | 3.3m/s | -47.3°C | 0.6% | 134.9hPa | 2.6V | 18:12:15 | 01:49:20 | 00:00:00 | |
| DL1XH-west | 2026-08-31 12:39:54 | 56.63086 | 3.54201 | 53° | 40km/h | 14389m | 3.6m/s | -47.2°C | 0.7% | 135.7hPa | 2.6V | 18:12:15 | 01:49:09 | 00:00:00 | |
| DL1XH-west | 2026-08-31 12:39:43 | 56.63021 | 3.54059 | 52° | 38km/h | 14354m | 3m/s | -47°C | 0.6% | 136.4hPa | 2.6V | 18:12:15 | 01:48:59 | 00:00:00 | |
| DL1XH-west | 2026-08-31 12:39:33 | 56.62950 | 3.53914 | 49° | 37km/h | 14312m | 4m/s | -47.2°C | 0.7% | 137.3hPa | 2.5V | 18:12:15 | 01:48:48 | 00:00:00 | |
| DL1XH-west | 2026-08-31 12:39:23 | 56.62884 | 3.53768 | 54° | 38km/h | 14272m | 3.4m/s | -47.3°C | 0.6% | 138.1hPa | 2.5V | 18:12:15 | 01:48:37 | 00:00:00 | |
| DL1XH-west | 2026-08-31 12:39:12 | 56.62834 | 3.53640 | 59° | 37km/h | 14239m | 4.1m/s | -47.3°C | 0.6% | 138.9hPa | 2.6V | 18:12:15 | 01:48:28 | 00:00:00 | |
| DL1XH-west | 2026-08-31 12:39:02 | 56.62778 | 3.53489 | 53° | 33km/h | 14194m | 3.8m/s | -47.2°C | 0.6% | 139.7hPa | 2.6V | 18:12:15 | 01:48:16 | 00:00:00 | |
| DL1XH-west | 2026-08-31 12:38:51 | 56.62738 | 3.53365 | 57° | 31km/h | 14159m | 3.9m/s | -47.6°C | 0.7% | 140.5hPa | 2.6V | 18:12:15 | 01:48:06 | 00:00:00 | |
| DL1XH-west | 2026-08-31 12:38:40 | 56.62709 | 3.53241 | 71° | 31km/h | 14124m | 3.4m/s | 0°C | 0% | 141.3hPa | 2.5V | 18:12:15 | 01:47:56 | 00:00:00 | |
| DL1XH-west | 2026-08-31 12:38:30 | 56.62674 | 3.53090 | 63° | 31km/h | 14085m | 3.4m/s | 0°C | 0% | 0hPa | 2.5V | 18:12:15 | 01:47:45 | 00:00:00 | |
| DL1XH-west | 2026-08-31 12:38:19 | 56.62643 | 3.52938 | 69° | 33km/h | 14048m | 2.8m/s | 0°C | 0% | 0hPa | 2.5V | 18:12:15 | 01:47:34 | 00:00:00 | |
| DL1XH-west | 2026-08-31 12:38:09 | 56.62611 | 3.52799 | 58° | 33km/h | 14013m | 3.3m/s | 0°C | 0% | 0hPa | 2.6V | 18:12:15 | 01:47:24 | 00:00:00 | |
| DL1XH-west | 2026-08-31 12:37:58 | 56.62571 | 3.52663 | 64° | 35km/h | 13978m | 2.5m/s | 0°C | 0% | 0hPa | 2.6V | 18:12:15 | 01:47:14 | 00:00:00 | |
| DL1XH-west | 2026-08-31 12:37:48 | 56.62540 | 3.52523 | 76° | 33km/h | 13944m | 3.6m/s | 0°C | 0% | 0hPa | 2.5V | 18:12:15 | 01:47:04 | 00:00:00 | |
| DL1XH-west | 2026-08-31 12:37:26 | 56.62479 | 3.52171 | 66° | 35km/h | 13867m | 3.3m/s | 0°C | 0% | 0hPa | 2.5V | 18:12:15 | 01:46:42 | 00:00:00 | |
| DJ2DS-15 | 2026-08-31 12:37:18 | 56.62448 | 3.52047 | 65° | 35km/h | 13840m | 2.7m/s | -47.3°C | 3.6% | 147.4hPa | 2.6V | 00:00:00 | 01:46:34 | 00:00:00 | |
| DJ2DS-15 | 2026-08-31 12:36:58 | 56.62370 | 3.51764 | 63° | 35km/h | 13769m | 3.7m/s | -47.0°C | 3.5% | 149.0hPa | 2.6V | 00:00:00 | 01:46:14 | 00:00:00 | |
| DJ2DS-15 | 2026-08-31 12:36:38 | 56.62290 | 3.51475 | 65° | 38km/h | 13696m | 2.7m/s | -47.1°C | 3.6% | 150.6hPa | 2.6V | 00:00:00 | 01:45:54 | 00:00:00 | |
| DJ2DS-15 | 2026-08-31 12:36:18 | 56.62223 | 3.51141 | 72° | 42km/h | 13625m | 3.2m/s | -47.0°C | 3.5% | 152.3hPa | 2.6V | 00:00:00 | 01:45:34 | 00:00:00 | |
| DJ2DS-15 | 2026-08-31 12:35:57 | 56.62150 | 3.50770 | 71° | 38km/h | 13548m | 3.9m/s | -46.8°C | 3.5% | 154.1hPa | 2.5V | 00:00:00 | 01:45:13 | 00:00:00 | |
| DJ2DS-15 | 2026-08-31 12:35:37 | 56.62077 | 3.50439 | 68° | 42km/h | 13473m | 3.2m/s | -46.6°C | 3.5% | 155.9hPa | 2.5V | 00:00:00 | 01:44:53 | 00:00:00 | |
| DL1XH-west | 2026-08-31 12:35:11 | 56.61954 | 3.49990 | 62° | 37km/h | 13371m | 3.1m/s | 0°C | 0% | 0hPa | 2.5V | 18:12:15 | 01:44:26 | 00:00:00 | |
| DJ2DS-15 | 2026-08-31 12:34:57 | 56.61903 | 3.49778 | 68° | 38km/h | 13323m | 3.8m/s | -46.4°C | 3.4% | 159.5hPa | 2.6V | 00:00:00 | 01:44:13 | 00:00:00 | |
| DJ2DS-15 | 2026-08-31 12:34:37 | 56.61828 | 3.49467 | 68° | 35km/h | 13249m | 3.5m/s | -46.7°C | 3.6% | 161.2hPa | 2.6V | 00:00:00 | 01:43:53 | 00:00:00 | |
| DJ2DS-15 | 2026-08-31 12:34:16 | 56.61758 | 3.49157 | 65° | 29km/h | 13175m | 3.3m/s | -46.6°C | 3.6% | 163.1hPa | 2.6V | 00:00:00 | 01:43:32 | 00:00:00 | |
| DJ2DS-15 | 2026-08-31 12:33:49 | 56.61689 | 3.48816 | 73° | 31km/h | 13084m | 2.7m/s | -46.4°C | 3.6% | 165.4hPa | 2.5V | 00:00:00 | 01:43:05 | 00:00:00 | |
| DJ2DS-15 | 2026-08-31 12:33:29 | 56.61648 | 3.48536 | 77° | 31km/h | 13016m | 4.2m/s | -46.6°C | 3.6% | 167.0hPa | 2.5V | 00:00:00 | 01:42:45 | 00:00:00 | |
| DJ2DS-15 | 2026-08-31 12:33:09 | 56.61597 | 3.48272 | 65° | 35km/h | 12952m | 2.6m/s | -46.7°C | 0% | 168.7hPa | 2.5V | 00:00:00 | 01:42:25 | 00:00:00 | |
| DJ2DS-15 | 2026-08-31 12:31:59 | 56.61378 | 3.47307 | 68° | 37km/h | 12729m | 2.7m/s | 0°C | 0% | 0hPa | 0V | 00:00:00 | 01:41:15 | 00:00:00 | |
| DJ2DS-15 | 2026-08-31 12:30:35 | 56.61175 | 3.46059 | 70° | 37km/h | 12453m | 3.2m/s | 0°C | 0% | 0hPa | 0V | 00:00:00 | 01:39:51 | 00:00:00 | |
| DJ2DS-15 | 2026-08-31 12:30:09 | 56.61107 | 3.45645 | 77° | 35km/h | 12362m | 3.8m/s | 0°C | 0% | 0hPa | 0V | 00:00:00 | 01:39:25 | 08:30:00 | |
| DJ2DS-15 | 2026-08-31 12:29:02 | 56.61010 | 3.44612 | 95° | 35km/h | 12125m | 2.9m/s | 0°C | 0% | 0hPa | 0V | 00:00:00 | 01:38:18 | 00:00:00 | |
| DJ2DS-15 | 2026-08-31 12:28:37 | 56.60987 | 3.44206 | 82° | 37km/h | 12039m | 3.2m/s | 0°C | 0% | 0hPa | 0V | 00:00:00 | 01:37:53 | 00:00:00 | |
| DJ2DS-15 | 2026-08-31 12:28:15 | 56.60950 | 3.43847 | 84° | 35km/h | 11967m | 3.4m/s | 0°C | 0% | 0hPa | 0V | 00:00:00 | 01:37:31 | 00:00:00 | |
| DJ2DS-15 | 2026-08-31 12:27:41 | 56.60897 | 3.43327 | 81° | 38km/h | 11856m | 2.9m/s | 0°C | 0% | 0hPa | 0V | 00:00:00 | 01:36:57 | 00:00:00 | |
| DJ2DS-15 | 2026-08-31 12:27:21 | 56.60872 | 3.42981 | 80° | 37km/h | 11792m | 2.8m/s | 0°C | 0% | 0hPa | 0V | 00:00:00 | 01:36:37 | 00:00:00 | |
| DJ2DS-15 | 2026-08-31 12:26:42 | 56.60823 | 3.42300 | 81° | 35km/h | 11668m | 3.4m/s | 0°C | 0% | 0hPa | 0V | 00:00:00 | 01:35:58 | 00:00:00 | |
| DJ2DS-15 | 2026-08-31 12:26:19 | 56.60775 | 3.41915 | 67° | 31km/h | 11593m | 3.7m/s | 0°C | 0% | 0hPa | 0V | 00:00:00 | 01:35:35 | 00:00:00 | |
| DJ2DS-15 | 2026-08-31 12:25:39 | 56.60693 | 3.41363 | 82° | 31km/h | 11472m | 2.2m/s | 0°C | 0% | 0hPa | 0V | 00:00:00 | 01:34:55 | 00:00:00 |